Time,TemperatureF,DewpointF,PressureIn,WindDirection,WindDirectionDegrees,WindSpeedMPH,WindSpeedGustMPH,Humidity,HourlyPrecipIn,Conditions,Clouds,dailyrainin,SolarRadiationWatts/m^2,SoftwareType,DateUTC
2013-03-21 00:00:00,17.7,13.7,29.81,NNW,338,0.0,0.0,84,0.00,,,0.00,0.00,VWS V14.01,2013-03-21 04:00:00,
2013-03-21 00:30:00,17.0,12.7,29.80,WSW,248,0.0,1.0,83,0.00,,,0.00,0.00,VWS V14.01,2013-03-21 04:30:00,
2013-03-21 01:00:00,16.4,12.1,29.80,WSW,248,0.0,0.0,83,0.00,,,0.00,0.00,VWS V14.01,2013-03-21 05:00:00,
2013-03-21 01:30:00,15.9,11.7,29.79,WSW,248,0.0,0.0,83,0.00,,,0.00,0.00,VWS V14.01,2013-03-21 05:30:00,
2013-03-21 02:00:00,15.9,11.9,29.79,WSW,248,0.0,1.0,84,0.00,,,0.00,0.00,VWS V14.01,2013-03-21 06:00:00,
2013-03-21 02:30:00,15.9,11.9,29.79,WSW,248,0.0,0.0,84,0.00,,,0.00,0.00,VWS V14.01,2013-03-21 06:30:00,
2013-03-21 03:00:00,15.6,11.6,29.78,WSW,248,0.0,0.0,84,0.00,,,0.00,0.00,VWS V14.01,2013-03-21 07:00:00,
2013-03-21 03:30:00,16.1,12.4,29.77,WSW,248,0.0,0.0,85,0.00,,,0.00,0.00,VWS V14.01,2013-03-21 07:30:00,
2013-03-21 04:00:00,16.5,12.8,29.77,WSW,248,0.0,0.0,85,0.00,,,0.00,0.00,VWS V14.01,2013-03-21 08:00:00,
2013-03-21 04:30:00,16.4,12.7,29.76,WSW,248,0.0,0.0,85,0.00,,,0.00,0.00,VWS V14.01,2013-03-21 08:30:00,
2013-03-21 05:00:00,15.7,12.0,29.76,WSW,248,0.0,0.0,85,0.00,,,0.00,0.00,VWS V14.01,2013-03-21 09:00:00,
2013-03-21 05:30:00,15.7,12.0,29.76,WSW,248,0.0,0.0,85,0.00,,,0.00,0.00,VWS V14.01,2013-03-21 09:30:00,
2013-03-21 06:00:00,16.4,12.9,29.76,WSW,248,0.0,0.0,86,0.00,,,0.00,0.00,VWS V14.01,2013-03-21 10:00:00,
2013-03-21 06:30:00,16.7,13.2,29.76,WSW,248,0.0,0.0,86,0.00,,,0.00,0.00,VWS V14.01,2013-03-21 10:30:00,
2013-03-21 07:00:00,17.3,14.1,29.76,WSW,248,0.0,0.0,87,0.00,,,0.00,0.00,VWS V14.01,2013-03-21 11:00:00,
2013-03-21 07:30:00,18.0,14.8,29.77,WSW,248,0.0,0.0,87,0.00,,,0.00,0.00,VWS V14.01,2013-03-21 11:30:00,
2013-03-21 08:00:00,18.6,15.6,29.77,WSW,248,0.0,0.0,88,0.00,,,0.00,5.00,VWS V14.01,2013-03-21 12:00:00,
2013-03-21 08:30:00,18.9,15.9,29.77,WSW,248,0.0,0.0,88,0.00,,,0.00,13.00,VWS V14.01,2013-03-21 12:30:00,
2013-03-21 09:00:00,20.6,17.9,29.77,WSW,248,0.0,0.0,89,0.00,,,0.00,32.00,VWS V14.01,2013-03-21 13:00:00,
2013-03-21 09:30:00,23.6,20.8,29.77,WSW,248,0.0,2.0,89,0.00,,,0.00,50.00,VWS V14.01,2013-03-21 13:30:00,
2013-03-21 10:00:00,25.3,21.1,29.78,WNW,292,0.0,6.0,84,0.00,,,0.00,59.00,VWS V14.01,2013-03-21 14:00:00,
2013-03-21 10:30:00,23.6,20.8,29.77,WSW,248,0.0,2.0,89,0.00,,OVC041,0.00,50.00,VWS V14.01,2013-03-21 14:30:00,
2013-03-21 10:56:00,27.3,19.5,29.80,West,277,0.0,6.0,72,0.00,,,0.03,69.00,VWS V14.01,2013-03-21 14:56:00,
2013-03-21 10:57:00,27.3,19.5,29.80,West,277,0.0,6.0,72,0.03,,,0.03,69.00,VWS V14.01,2013-03-21 14:57:00,
2013-03-21 10:58:00,27.3,19.5,29.80,West,277,1.0,6.0,72,0.03,,,0.03,65.00,VWS V14.01,2013-03-21 14:58:00,
2013-03-21 10:59:00,27.3,19.5,29.80,West,277,1.0,6.0,72,0.03,,,0.03,65.00,VWS V14.01,2013-03-21 14:59:00,
2013-03-21 11:00:00,27.3,19.5,29.80,West,277,1.0,6.0,72,0.03,,,0.03,65.00,VWS V14.01,2013-03-21 15:00:00,
2013-03-21 11:01:00,27.2,19.4,29.80,WSW,240,4.0,6.0,72,0.03,,,0.03,63.00,VWS V14.01,2013-03-21 15:01:00,
2013-03-21 11:02:00,27.2,19.1,29.80,WNW,295,0.0,6.0,71,0.03,,,0.03,67.00,VWS V14.01,2013-03-21 15:02:00,
2013-03-21 11:03:00,27.0,18.9,29.80,WNW,290,0.0,6.0,71,0.03,,,0.03,69.00,VWS V14.01,2013-03-21 15:03:00,
2013-03-21 11:04:00,27.0,18.9,29.80,WNW,290,0.0,6.0,71,0.03,,,0.03,69.00,VWS V14.01,2013-03-21 15:04:00,
2013-03-21 11:05:00,27.0,18.9,29.80,WNW,290,2.0,6.0,71,0.03,,,0.03,69.00,VWS V14.01,2013-03-21 15:05:00,
2013-03-21 11:06:00,27.0,18.9,29.80,NW,308,1.0,6.0,71,0.03,,,0.03,69.00,VWS V14.01,2013-03-21 15:06:00,
2013-03-21 11:07:00,27.0,18.9,29.80,WNW,301,1.0,6.0,71,0.03,,,0.03,70.00,VWS V14.01,2013-03-21 15:07:00,
2013-03-21 11:08:00,27.0,18.9,29.80,WNW,286,1.0,6.0,71,0.03,,,0.03,70.00,VWS V14.01,2013-03-21 15:08:00,
2013-03-21 11:09:00,27.0,18.9,29.80,NW,314,1.0,6.0,71,0.03,,,0.03,74.00,VWS V14.01,2013-03-21 15:09:00,
2013-03-21 11:10:00,27.0,18.9,29.80,NW,314,0.0,6.0,71,0.03,,,0.03,76.00,VWS V14.01,2013-03-21 15:10:00,
2013-03-21 11:11:00,27.0,18.9,29.80,WNW,302,0.0,6.0,71,0.03,,,0.03,76.00,VWS V14.01,2013-03-21 15:11:00,
2013-03-21 11:12:00,27.0,18.9,29.80,WNW,286,0.0,6.0,71,0.03,,,0.03,77.00,VWS V14.01,2013-03-21 15:12:00,
2013-03-21 11:13:00,27.0,18.5,29.80,WSW,240,3.0,6.0,70,0.03,,,0.03,77.00,VWS V14.01,2013-03-21 15:13:00,
2013-03-21 11:14:00,26.9,18.1,29.80,West,265,3.0,6.0,69,0.03,,OVC060,0.03,76.00,VWS V14.01,2013-03-21 15:14:00,
2013-03-21 11:15:00,26.9,18.1,29.80,WSW,253,2.0,6.0,69,0.04,,OVC060,0.04,74.00,VWS V14.01,2013-03-21 15:15:00,
2013-03-21 11:16:00,26.7,17.9,29.80,WSW,246,0.0,6.0,69,0.04,,OVC060,0.04,74.00,VWS V14.01,2013-03-21 15:16:00,
2013-03-21 11:17:00,26.7,17.9,29.80,WSW,237,0.0,6.0,69,0.04,,OVC060,0.04,76.00,VWS V14.01,2013-03-21 15:17:00,
2013-03-21 11:18:00,26.7,17.9,29.80,WSW,255,1.0,6.0,69,0.04,,OVC060,0.04,76.00,VWS V14.01,2013-03-21 15:18:00,
2013-03-21 11:19:00,26.7,17.9,29.80,WNW,296,1.0,6.0,69,0.04,,OVC060,0.04,72.00,VWS V14.01,2013-03-21 15:19:00,
2013-03-21 11:20:00,26.7,17.9,29.80,WSW,251,2.0,6.0,69,0.04,,OVC060,0.04,72.00,VWS V14.01,2013-03-21 15:20:00,
2013-03-21 11:21:00,26.7,17.9,29.80,WSW,252,0.0,6.0,69,0.04,,OVC060,0.04,72.00,VWS V14.01,2013-03-21 15:21:00,
2013-03-21 11:22:00,26.7,17.9,29.80,WSW,246,0.0,6.0,69,0.04,,OVC060,0.04,72.00,VWS V14.01,2013-03-21 15:22:00,
2013-03-21 11:23:00,26.7,17.9,29.80,WSW,256,0.0,6.0,69,0.04,,OVC060,0.04,74.00,VWS V14.01,2013-03-21 15:23:00,
2013-03-21 11:24:00,26.9,18.1,29.80,West,275,1.0,6.0,69,0.04,,OVC060,0.04,74.00,VWS V14.01,2013-03-21 15:24:00,
2013-03-21 11:25:00,26.9,18.1,29.80,West,275,0.0,6.0,69,0.04,,OVC060,0.04,76.00,VWS V14.01,2013-03-21 15:25:00,
2013-03-21 11:26:00,26.9,18.1,29.80,West,265,2.0,6.0,69,0.04,,OVC060,0.04,77.00,VWS V14.01,2013-03-21 15:26:00,
2013-03-21 11:27:00,26.9,18.1,29.80,West,265,0.0,6.0,69,0.04,,OVC060,0.04,81.00,VWS V14.01,2013-03-21 15:27:00,
2013-03-21 11:28:00,26.9,18.1,29.80,West,265,0.0,6.0,69,0.04,,OVC060,0.04,84.00,VWS V14.01,2013-03-21 15:28:00,
2013-03-21 11:29:00,26.9,18.1,29.80,South,175,2.0,6.0,69,0.04,,OVC060,0.04,91.00,VWS V14.01,2013-03-21 15:29:00,
2013-03-21 11:30:00,26.9,18.1,29.80,SW,233,1.0,6.0,69,0.04,,OVC060,0.04,91.00,VWS V14.01,2013-03-21 15:30:00,
2013-03-21 11:31:00,27.0,18.2,29.80,WSW,237,0.0,6.0,69,0.01,,OVC060,0.04,91.00,VWS V14.01,2013-03-21 15:31:00,
2013-03-21 11:32:00,27.0,18.2,29.80,West,265,1.0,6.0,69,0.01,,OVC060,0.04,91.00,VWS V14.01,2013-03-21 15:32:00,
2013-03-21 11:33:00,27.0,18.2,29.80,NW,319,1.0,6.0,69,0.01,,OVC060,0.04,93.00,VWS V14.01,2013-03-21 15:33:00,
2013-03-21 11:34:00,27.0,18.2,29.80,West,267,0.0,6.0,69,0.01,,OVC060,0.04,95.00,VWS V14.01,2013-03-21 15:34:00,
2013-03-21 11:35:00,27.0,18.2,29.80,NW,315,2.0,6.0,69,0.01,,OVC060,0.04,91.00,VWS V14.01,2013-03-21 15:35:00,
2013-03-21 11:36:00,27.2,18.4,29.80,West,265,0.0,6.0,69,0.01,,OVC060,0.04,83.00,VWS V14.01,2013-03-21 15:36:00,
2013-03-21 11:37:00,27.2,18.4,29.80,ENE,63,3.0,6.0,69,0.01,,OVC060,0.04,81.00,VWS V14.01,2013-03-21 15:37:00,
2013-03-21 11:38:00,27.2,18.0,29.80,West,265,3.0,6.0,68,0.01,,OVC060,0.04,84.00,VWS V14.01,2013-03-21 15:38:00,
2013-03-21 11:39:00,27.2,18.0,29.80,NW,306,0.0,6.0,68,0.01,,OVC060,0.04,88.00,VWS V14.01,2013-03-21 15:39:00,
2013-03-21 11:40:00,27.2,18.0,29.80,NW,306,0.0,6.0,68,0.01,,OVC060,0.04,88.00,VWS V14.01,2013-03-21 15:40:00,
2013-03-21 11:41:00,27.2,18.0,29.80,NW,306,0.0,6.0,68,0.01,,OVC060,0.04,90.00,VWS V14.01,2013-03-21 15:41:00,
2013-03-21 11:42:00,27.2,18.0,29.80,WSW,255,0.0,6.0,68,0.01,,OVC060,0.04,98.00,VWS V14.01,2013-03-21 15:42:00,
2013-03-21 11:43:00,27.2,18.0,29.80,WSW,255,0.0,6.0,68,0.01,,OVC060,0.04,109.00,VWS V14.01,2013-03-21 15:43:00,
2013-03-21 11:44:00,27.3,18.1,29.80,NE,46,0.0,6.0,68,0.01,,OVC025,0.04,109.00,VWS V14.01,2013-03-21 15:44:00,
2013-03-21 11:45:00,27.3,18.1,29.80,West,281,0.0,6.0,68,0.01,,OVC025,0.04,111.00,VWS V14.01,2013-03-21 15:45:00,
2013-03-21 11:46:00,27.3,18.1,29.80,West,281,0.0,6.0,68,0.01,,OVC025,0.04,100.00,VWS V14.01,2013-03-21 15:46:00,
2013-03-21 11:47:00,27.5,18.3,29.80,NNE,20,0.0,6.0,68,0.01,,OVC025,0.04,98.00,VWS V14.01,2013-03-21 15:47:00,
2013-03-21 11:48:00,27.5,18.3,29.80,North,9,0.0,6.0,68,0.02,,OVC025,0.05,102.00,VWS V14.01,2013-03-21 15:48:00,
2013-03-21 11:49:00,27.6,18.4,29.80,NW,323,0.0,6.0,68,0.02,,OVC025,0.05,105.00,VWS V14.01,2013-03-21 15:49:00,
2013-03-21 11:50:00,27.6,18.1,29.80,NW,323,0.0,6.0,67,0.02,,OVC025,0.05,111.00,VWS V14.01,2013-03-21 15:50:00,
2013-03-21 11:51:00,27.6,18.4,29.80,NW,323,0.0,6.0,68,0.02,,OVC025,0.05,98.00,VWS V14.01,2013-03-21 15:51:00,
2013-03-21 11:52:00,27.6,18.4,29.80,NW,311,1.0,6.0,68,0.02,,OVC025,0.05,97.00,VWS V14.01,2013-03-21 15:52:00,
2013-03-21 11:53:00,27.6,18.1,29.80,NW,313,2.0,6.0,67,0.02,,OVC025,0.05,104.00,VWS V14.01,2013-03-21 15:53:00,
2013-03-21 11:54:00,27.6,18.1,29.80,WNW,286,0.0,6.0,67,0.02,,OVC025,0.05,111.00,VWS V14.01,2013-03-21 15:54:00,
2013-03-21 11:55:00,27.8,18.3,29.80,WNW,298,1.0,6.0,67,0.02,,OVC025,0.05,107.00,VWS V14.01,2013-03-21 15:55:00,
2013-03-21 11:56:00,27.8,18.3,29.80,WNW,298,0.0,6.0,67,0.02,,OVC025,0.05,107.00,VWS V14.01,2013-03-21 15:56:00,
2013-03-21 11:57:00,27.8,17.9,29.80,WNW,298,0.0,6.0,66,0.02,,OVC025,0.05,109.00,VWS V14.01,2013-03-21 15:57:00,
2013-03-21 11:58:00,27.8,17.9,29.80,WNW,289,0.0,6.0,66,0.02,,OVC025,0.05,107.00,VWS V14.01,2013-03-21 15:58:00,
2013-03-21 11:59:00,27.9,18.0,29.80,WNW,289,0.0,6.0,66,0.02,,OVC025,0.05,102.00,VWS V14.01,2013-03-21 15:59:00,
2013-03-21 12:00:00,27.9,18.0,29.81,WSW,246,0.0,6.0,66,0.02,,OVC025,0.05,95.00,VWS V14.01,2013-03-21 16:00:00,
2013-03-21 12:01:00,27.9,18.0,29.81,NW,310,2.0,6.0,66,0.02,,OVC025,0.05,84.00,VWS V14.01,2013-03-21 16:01:00,
2013-03-21 12:02:00,27.9,18.0,29.81,West,265,2.0,6.0,66,0.02,,OVC025,0.05,77.00,VWS V14.01,2013-03-21 16:02:00,
2013-03-21 12:03:00,27.9,17.7,29.81,West,259,1.0,6.0,65,0.02,,OVC025,0.05,72.00,VWS V14.01,2013-03-21 16:03:00,
2013-03-21 12:04:00,27.9,18.0,29.81,WNW,301,1.0,6.0,66,0.02,,OVC025,0.05,63.00,VWS V14.01,2013-03-21 16:04:00,
2013-03-21 12:05:00,27.8,17.9,29.81,WNW,301,0.0,6.0,66,0.02,,OVC025,0.05,81.00,VWS V14.01,2013-03-21 16:05:00,
2013-03-21 12:06:00,27.8,17.9,29.81,WNW,301,0.0,6.0,66,0.02,,OVC025,0.05,114.00,VWS V14.01,2013-03-21 16:06:00,
2013-03-21 12:07:00,27.8,17.9,29.81,NW,325,0.0,6.0,66,0.02,,OVC025,0.05,137.00,VWS V14.01,2013-03-21 16:07:00,
2013-03-21 12:08:00,27.9,18.0,29.81,NW,322,0.0,6.0,66,0.02,,OVC025,0.05,102.00,VWS V14.01,2013-03-21 16:08:00,
2013-03-21 12:09:00,27.9,18.0,29.81,NW,322,0.0,6.0,66,0.02,,OVC025,0.05,56.00,VWS V14.01,2013-03-21 16:09:00,
2013-03-21 12:10:00,27.9,18.0,29.81,NW,315,2.0,6.0,66,0.02,,OVC025,0.05,51.00,VWS V14.01,2013-03-21 16:10:00,
2013-03-21 12:11:00,27.9,18.0,29.81,WNW,292,1.0,6.0,66,0.02,,OVC025,0.05,58.00,VWS V14.01,2013-03-21 16:11:00,
2013-03-21 12:12:00,27.9,18.0,29.81,NW,304,0.0,6.0,66,0.02,,OVC025,0.05,58.00,VWS V14.01,2013-03-21 16:12:00,
2013-03-21 12:13:00,27.9,18.0,29.81,NW,304,0.0,6.0,66,0.02,,OVC025,0.05,107.00,VWS V14.01,2013-03-21 16:13:00,
2013-03-21 12:14:00,27.9,18.0,29.81,WNW,291,0.0,6.0,66,0.02,,OVC025,0.05,88.00,VWS V14.01,2013-03-21 16:14:00,
2013-03-21 12:15:00,27.9,18.0,29.81,West,272,1.0,6.0,66,0.02,,OVC025,0.05,121.00,VWS V14.01,2013-03-21 16:15:00,
2013-03-21 12:16:00,27.9,18.0,29.81,WNW,284,1.0,6.0,66,0.02,,OVC025,0.05,141.00,VWS V14.01,2013-03-21 16:16:00,
2013-03-21 12:17:00,27.9,18.0,29.81,SSW,200,1.0,6.0,66,0.03,,OVC025,0.06,120.00,VWS V14.01,2013-03-21 16:17:00,
2013-03-21 12:18:00,28.1,17.9,29.81,WSW,252,0.0,6.0,65,0.03,,OVC025,0.06,111.00,VWS V14.01,2013-03-21 16:18:00,
2013-03-21 12:19:00,28.1,17.9,29.81,West,281,0.0,6.0,65,0.03,,OVC025,0.06,121.00,VWS V14.01,2013-03-21 16:19:00,
2013-03-21 12:20:00,28.2,18.0,29.81,WNW,286,0.0,6.0,65,0.03,,OVC025,0.06,84.00,VWS V14.01,2013-03-21 16:20:00,
2013-03-21 12:21:00,28.2,18.0,29.81,SSW,205,0.0,6.0,65,0.03,,OVC025,0.06,139.00,VWS V14.01,2013-03-21 16:21:00,
2013-03-21 12:22:00,28.4,17.8,29.81,West,271,0.0,6.0,64,0.03,,OVC025,0.06,123.00,VWS V14.01,2013-03-21 16:22:00,
2013-03-21 12:23:00,28.2,17.6,29.81,West,268,1.0,6.0,64,0.03,,OVC025,0.06,105.00,VWS V14.01,2013-03-21 16:23:00,
2013-03-21 12:24:00,28.1,18.2,29.81,WSW,240,1.0,6.0,66,0.03,,OVC025,0.06,104.00,VWS V14.01,2013-03-21 16:24:00,
2013-03-21 12:25:00,27.9,17.0,29.81,West,260,1.0,6.0,63,0.03,,OVC025,0.06,120.00,VWS V14.01,2013-03-21 16:25:00,
2013-03-21 12:26:00,27.8,17.2,29.81,WSW,254,2.0,6.0,64,0.03,,OVC025,0.06,116.00,VWS V14.01,2013-03-21 16:26:00,
2013-03-21 12:27:00,27.6,16.3,29.81,North,360,0.0,6.0,62,0.03,,OVC025,0.06,132.00,VWS V14.01,2013-03-21 16:27:00,
2013-03-21 12:28:00,27.5,16.6,29.81,West,280,1.0,6.0,63,0.03,,OVC025,0.06,163.00,VWS V14.01,2013-03-21 16:28:00,
2013-03-21 12:29:00,27.3,16.4,29.82,West,269,2.0,6.0,63,0.03,,OVC025,0.06,116.00,VWS V14.01,2013-03-21 16:29:00,
2013-03-21 12:30:00,27.2,15.9,29.82,West,263,0.0,6.0,62,0.03,,OVC025,0.06,130.00,VWS V14.01,2013-03-21 16:30:00,
2013-03-21 12:31:00,27.2,16.6,29.82,NW,311,0.0,6.0,64,0.02,,OVC025,0.06,178.00,VWS V14.01,2013-03-21 16:31:00,
2013-03-21 12:32:00,27.2,17.0,29.82,West,275,3.0,6.0,65,0.02,,OVC025,0.06,160.00,VWS V14.01,2013-03-21 16:32:00,
2013-03-21 12:33:00,27.2,16.6,29.82,WSW,251,4.0,6.0,64,0.02,,OVC025,0.06,149.00,VWS V14.01,2013-03-21 16:33:00,
2013-03-21 12:34:00,27.2,16.6,29.82,West,271,0.0,6.0,64,0.02,,OVC025,0.06,125.00,VWS V14.01,2013-03-21 16:34:00,
2013-03-21 12:35:00,27.2,17.0,29.82,NW,306,1.0,6.0,65,0.02,,OVC025,0.06,100.00,VWS V14.01,2013-03-21 16:35:00,
2013-03-21 12:36:00,27.3,17.1,29.82,WNW,294,1.0,6.0,65,0.02,,OVC025,0.06,107.00,VWS V14.01,2013-03-21 16:36:00,
2013-03-21 12:37:00,27.5,17.6,29.82,NW,308,1.0,6.0,66,0.02,,OVC025,0.06,118.00,VWS V14.01,2013-03-21 16:37:00,
2013-03-21 12:38:00,27.5,17.3,29.82,NNW,333,2.0,6.0,65,0.02,,OVC025,0.06,120.00,VWS V14.01,2013-03-21 16:38:00,
2013-03-21 12:39:00,27.5,17.6,29.82,NNW,333,0.0,6.0,66,0.02,,OVC025,0.06,102.00,VWS V14.01,2013-03-21 16:39:00,
2013-03-21 12:40:00,27.5,17.6,29.82,West,262,0.0,6.0,66,0.02,,OVC025,0.06,102.00,VWS V14.01,2013-03-21 16:40:00,
2013-03-21 12:41:00,27.6,17.7,29.82,West,262,0.0,6.0,66,0.02,,OVC025,0.06,105.00,VWS V14.01,2013-03-21 16:41:00,
2013-03-21 12:42:00,27.5,17.6,29.82,West,271,1.0,6.0,66,0.02,,OVC025,0.06,104.00,VWS V14.01,2013-03-21 16:42:00,
2013-03-21 12:43:00,27.3,17.1,29.82,West,271,0.0,6.0,65,0.02,,OVC025,0.06,98.00,VWS V14.01,2013-03-21 16:43:00,
2013-03-21 12:44:00,27.2,17.0,29.82,WNW,292,0.0,6.0,65,0.02,,,0.06,97.00,VWS V14.01,2013-03-21 16:44:00,
2013-03-21 12:45:00,27.2,17.4,29.82,WNW,292,0.0,6.0,66,0.02,,,0.06,105.00,VWS V14.01,2013-03-21 16:45:00,
2013-03-21 12:46:00,27.2,17.4,29.82,West,271,1.0,6.0,66,0.02,,,0.06,97.00,VWS V14.01,2013-03-21 16:46:00,
2013-03-21 12:47:00,27.3,17.5,29.82,West,271,0.0,6.0,66,0.02,,,0.06,98.00,VWS V14.01,2013-03-21 16:47:00,
2013-03-21 12:48:00,27.3,17.5,29.82,West,271,1.0,6.0,66,0.02,,,0.06,113.00,VWS V14.01,2013-03-21 16:48:00,
2013-03-21 12:49:00,27.3,17.5,29.82,WNW,296,2.0,6.0,66,0.02,,,0.06,130.00,VWS V14.01,2013-03-21 16:49:00,
2013-03-21 12:50:00,27.5,17.6,29.82,West,281,1.0,6.0,66,0.02,,,0.06,116.00,VWS V14.01,2013-03-21 16:50:00,
2013-03-21 12:51:00,27.3,17.1,29.82,WNW,286,0.0,6.0,65,0.02,,,0.06,120.00,VWS V14.01,2013-03-21 16:51:00,
2013-03-21 12:52:00,27.3,17.5,29.82,West,269,2.0,6.0,66,0.02,,,0.06,411.00,VWS V14.01,2013-03-21 16:52:00,
2013-03-21 12:53:00,27.3,17.1,29.82,NNW,328,1.0,6.0,65,0.02,,,0.06,404.00,VWS V14.01,2013-03-21 16:53:00,
2013-03-21 12:54:00,27.3,17.5,29.82,West,274,0.0,6.0,66,0.02,,,0.06,359.00,VWS V14.01,2013-03-21 16:54:00,
2013-03-21 12:55:00,27.2,17.4,29.82,WSW,254,0.0,6.0,66,0.02,,,0.06,357.00,VWS V14.01,2013-03-21 16:55:00,
2013-03-21 12:56:00,27.2,17.4,29.82,NW,307,0.0,6.0,66,0.02,,,0.06,404.00,VWS V14.01,2013-03-21 16:56:00,
2013-03-21 12:57:00,27.2,17.4,29.82,NW,308,1.0,6.0,66,0.02,,,0.06,497.00,VWS V14.01,2013-03-21 16:57:00,
2013-03-21 12:58:00,27.0,17.2,29.82,SSW,205,1.0,6.0,66,0.02,,,0.06,403.00,VWS V14.01,2013-03-21 16:58:00,
2013-03-21 12:59:00,26.9,16.7,29.82,West,265,1.0,6.0,65,0.02,,,0.06,394.00,VWS V14.01,2013-03-21 16:59:00,
2013-03-21 13:00:00,26.9,16.7,29.83,West,260,2.0,6.0,65,0.02,,,0.06,383.00,VWS V14.01,2013-03-21 17:00:00,
2013-03-21 13:01:00,26.7,16.9,29.83,ENE,76,1.0,6.0,66,0.01,,,0.06,373.00,VWS V14.01,2013-03-21 17:01:00,
2013-03-21 13:02:00,26.7,16.5,29.83,SSW,197,4.0,6.0,65,0.01,,,0.06,357.00,VWS V14.01,2013-03-21 17:02:00,
2013-03-21 13:03:00,26.7,16.9,29.83,WSW,248,3.0,6.0,66,0.01,,,0.06,346.00,VWS V14.01,2013-03-21 17:03:00,
2013-03-21 13:04:00,26.6,16.8,29.83,WNW,288,0.0,6.0,66,0.01,,,0.06,350.00,VWS V14.01,2013-03-21 17:04:00,
2013-03-21 13:05:00,26.6,16.8,29.83,WNW,290,2.0,6.0,66,0.01,,,0.06,345.00,VWS V14.01,2013-03-21 17:05:00,
2013-03-21 13:06:00,26.4,16.6,29.83,NNW,340,0.0,6.0,66,0.01,,,0.06,339.00,VWS V14.01,2013-03-21 17:06:00,
2013-03-21 13:07:00,26.6,16.8,29.83,NNW,330,0.0,6.0,66,0.01,,,0.06,343.00,VWS V14.01,2013-03-21 17:07:00,
2013-03-21 13:08:00,26.6,17.1,29.83,WNW,284,2.0,6.0,67,0.01,,,0.06,362.00,VWS V14.01,2013-03-21 17:08:00,
2013-03-21 13:09:00,26.6,16.8,29.83,WNW,292,0.0,6.0,66,0.01,,,0.06,445.00,VWS V14.01,2013-03-21 17:09:00,
2013-03-21 13:10:00,26.6,17.1,29.83,WNW,291,0.0,6.0,67,0.01,,,0.06,483.00,VWS V14.01,2013-03-21 17:10:00,
2013-03-21 13:11:00,26.6,16.8,29.83,SW,232,0.0,6.0,66,0.01,,,0.06,406.00,VWS V14.01,2013-03-21 17:11:00,
2013-03-21 13:12:00,26.6,17.1,29.83,WNW,300,0.0,6.0,67,0.01,,,0.06,427.00,VWS V14.01,2013-03-21 17:12:00,
2013-03-21 13:13:00,26.7,17.2,29.83,WNW,298,0.0,6.0,67,0.01,,,0.06,401.00,VWS V14.01,2013-03-21 17:13:00,
2013-03-21 13:14:00,26.7,17.6,29.83,NW,325,3.0,6.0,68,0.01,,,0.06,381.00,VWS V14.01,2013-03-21 17:14:00,
2013-03-21 13:15:00,26.7,17.6,29.83,WNW,294,1.0,6.0,68,0.01,,,0.06,376.00,VWS V14.01,2013-03-21 17:15:00,
2013-03-21 13:16:00,26.7,17.6,29.83,NW,321,2.0,6.0,68,0.01,,,0.06,381.00,VWS V14.01,2013-03-21 17:16:00,
2013-03-21 13:17:00,26.6,17.8,29.83,NW,316,0.0,6.0,69,0.01,,,0.06,390.00,VWS V14.01,2013-03-21 17:17:00,
2013-03-21 13:18:00,26.6,17.8,29.83,West,273,2.0,6.0,69,0.01,,,0.06,390.00,VWS V14.01,2013-03-21 17:18:00,
2013-03-21 13:19:00,26.6,17.5,29.83,SW,235,0.0,6.0,68,0.01,,,0.06,487.00,VWS V14.01,2013-03-21 17:19:00,
2013-03-21 13:20:00,26.6,17.8,29.83,West,266,1.0,6.0,69,0.01,,,0.06,353.00,VWS V14.01,2013-03-21 17:20:00,
2013-03-21 13:21:00,26.6,17.8,29.83,WNW,298,1.0,6.0,69,0.01,,,0.06,350.00,VWS V14.01,2013-03-21 17:21:00,
2013-03-21 13:22:00,26.7,17.9,29.83,West,273,0.0,6.0,69,0.01,,,0.06,341.00,VWS V14.01,2013-03-21 17:22:00,
2013-03-21 13:23:00,26.6,17.5,29.83,NNW,345,3.0,6.0,68,0.01,,,0.06,350.00,VWS V14.01,2013-03-21 17:23:00,
2013-03-21 13:24:00,26.6,17.5,29.83,NW,324,0.0,6.0,68,0.01,,,0.06,388.00,VWS V14.01,2013-03-21 17:24:00,
2013-03-21 13:25:00,26.7,17.6,29.83,West,279,0.0,6.0,68,0.02,,,0.07,464.00,VWS V14.01,2013-03-21 17:25:00,
2013-03-21 13:26:00,26.7,17.6,29.83,NW,311,0.0,6.0,68,0.02,,,0.07,464.00,VWS V14.01,2013-03-21 17:26:00,
2013-03-21 13:27:00,26.9,18.1,29.83,West,259,2.0,6.0,69,0.02,,,0.07,802.00,VWS V14.01,2013-03-21 17:27:00,
2013-03-21 13:28:00,26.9,17.8,29.83,South,184,0.0,6.0,68,0.02,,,0.07,802.00,VWS V14.01,2013-03-21 17:28:00,
2013-03-21 13:29:00,27.2,18.4,29.82,North,360,3.0,6.0,69,0.02,,,0.07,802.00,VWS V14.01,2013-03-21 17:29:00,
2013-03-21 13:30:00,27.2,17.7,29.82,West,268,0.0,6.0,67,0.02,,,0.07,802.00,VWS V14.01,2013-03-21 17:30:00,
2013-03-21 13:31:00,27.3,18.1,29.82,WSW,240,5.0,6.0,68,0.01,,,0.07,802.00,VWS V14.01,2013-03-21 17:31:00,
2013-03-21 13:32:00,27.2,17.7,29.82,WSW,245,2.0,6.0,67,0.01,,,0.07,410.00,VWS V14.01,2013-03-21 17:32:00,
2013-03-21 13:33:00,27.2,17.4,29.82,NW,307,2.0,6.0,66,0.01,,,0.07,410.00,VWS V14.01,2013-03-21 17:33:00,
2013-03-21 13:34:00,27.2,18.4,29.82,WNW,287,1.0,6.0,69,0.01,,,0.07,396.00,VWS V14.01,2013-03-21 17:34:00,
2013-03-21 13:35:00,27.0,17.9,29.82,WNW,286,2.0,6.0,68,0.01,,,0.07,468.00,VWS V14.01,2013-03-21 17:35:00,
2013-03-21 13:36:00,27.0,18.5,29.82,West,264,0.0,6.0,70,0.01,,,0.07,468.00,VWS V14.01,2013-03-21 17:36:00,
2013-03-21 13:37:00,27.0,18.5,29.82,SW,221,3.0,6.0,70,0.01,,,0.07,468.00,VWS V14.01,2013-03-21 17:37:00,
2013-03-21 13:38:00,26.9,18.4,29.82,West,265,0.0,6.0,70,0.01,,,0.07,468.00,VWS V14.01,2013-03-21 17:38:00,
2013-03-21 13:39:00,27.2,19.1,29.82,West,265,0.0,6.0,71,0.01,,,0.07,707.00,VWS V14.01,2013-03-21 17:39:00,
2013-03-21 13:40:00,27.3,19.1,29.82,West,262,1.0,6.0,71,0.01,,,0.07,707.00,VWS V14.01,2013-03-21 17:40:00,
2013-03-21 13:41:00,27.5,19.4,29.82,West,275,0.0,6.0,71,0.01,,,0.07,318.00,VWS V14.01,2013-03-21 17:41:00,
2013-03-21 13:42:00,27.5,19.4,29.82,West,281,2.0,6.0,71,0.01,,,0.07,318.00,VWS V14.01,2013-03-21 17:42:00,
2013-03-21 13:43:00,27.6,19.1,29.82,NW,315,3.0,6.0,70,0.01,,,0.07,318.00,VWS V14.01,2013-03-21 17:43:00,
2013-03-21 13:44:00,27.8,19.3,29.82,WNW,294,1.0,6.0,70,0.01,,OVC027,0.07,318.00,VWS V14.01,2013-03-21 17:44:00,
2013-03-21 13:45:00,27.8,19.6,29.83,WNW,293,0.0,6.0,71,0.01,,OVC027,0.07,318.00,VWS V14.01,2013-03-21 17:45:00,
2013-03-21 13:46:00,27.6,19.4,29.83,WSW,257,2.0,6.0,71,0.01,,OVC027,0.07,318.00,VWS V14.01,2013-03-21 17:46:00,
2013-03-21 13:47:00,27.5,19.0,29.83,WNW,284,0.0,6.0,70,0.01,,OVC027,0.07,318.00,VWS V14.01,2013-03-21 17:47:00,
2013-03-21 13:48:00,27.5,19.0,29.83,WNW,289,0.0,6.0,70,0.01,,OVC027,0.07,318.00,VWS V14.01,2013-03-21 17:48:00,
2013-03-21 13:49:00,27.6,19.4,29.83,WNW,288,0.0,6.0,71,0.01,,OVC027,0.07,318.00,VWS V14.01,2013-03-21 17:49:00,
2013-03-21 13:50:00,27.6,19.4,29.83,WNW,292,0.0,6.0,71,0.01,,OVC027,0.07,279.00,VWS V14.01,2013-03-21 17:50:00,
2013-03-21 13:51:00,27.6,19.4,29.83,WSW,257,1.0,6.0,71,0.01,,OVC027,0.07,264.00,VWS V14.01,2013-03-21 17:51:00,
2013-03-21 13:52:00,27.5,19.4,29.83,WNW,285,1.0,6.0,71,0.01,,OVC027,0.07,265.00,VWS V14.01,2013-03-21 17:52:00,
2013-03-21 13:53:00,27.5,19.0,29.83,WNW,285,0.0,6.0,70,0.01,,OVC027,0.07,287.00,VWS V14.01,2013-03-21 17:53:00,
2013-03-21 13:54:00,27.5,19.4,29.83,WNW,286,0.0,6.0,71,0.01,,OVC027,0.07,330.00,VWS V14.01,2013-03-21 17:54:00,
2013-03-21 13:55:00,27.3,19.1,29.83,WNW,288,1.0,6.0,71,0.01,,OVC027,0.07,345.00,VWS V14.01,2013-03-21 17:55:00,
2013-03-21 13:56:00,27.2,18.4,29.83,WNW,288,0.0,6.0,69,0.01,,OVC027,0.07,297.00,VWS V14.01,2013-03-21 17:56:00,
2013-03-21 13:57:00,27.2,18.7,29.83,WNW,288,0.0,6.0,70,0.01,,OVC027,0.07,299.00,VWS V14.01,2013-03-21 17:57:00,
2013-03-21 13:58:00,27.2,18.7,29.83,West,259,2.0,6.0,70,0.01,,OVC027,0.07,323.00,VWS V14.01,2013-03-21 17:58:00,
2013-03-21 13:59:00,27.0,18.5,29.83,WSW,256,0.0,6.0,70,0.01,,OVC027,0.07,360.00,VWS V14.01,2013-03-21 17:59:00,
2013-03-21 14:00:00,27.0,18.2,29.82,WSW,243,4.0,6.0,69,0.01,,OVC027,0.07,360.00,VWS V14.01,2013-03-21 18:00:00,
2013-03-21 14:01:00,26.7,17.9,29.82,WNW,298,0.0,6.0,69,0.01,,OVC027,0.07,385.00,VWS V14.01,2013-03-21 18:01:00,
2013-03-21 14:02:00,26.7,18.2,29.82,NNW,330,1.0,6.0,70,0.01,,OVC027,0.07,388.00,VWS V14.01,2013-03-21 18:02:00,
2013-03-21 14:03:00,26.7,17.9,29.82,WNW,294,0.0,6.0,69,0.01,,OVC027,0.07,408.00,VWS V14.01,2013-03-21 18:03:00,
2013-03-21 14:04:00,26.7,18.6,29.82,West,263,0.0,6.0,71,0.01,,OVC027,0.07,468.00,VWS V14.01,2013-03-21 18:04:00,
2013-03-21 14:05:00,26.7,18.2,29.82,West,263,0.0,6.0,70,0.01,,OVC027,0.07,468.00,VWS V14.01,2013-03-21 18:05:00,
2013-03-21 14:06:00,26.9,18.8,29.82,WNW,292,1.0,6.0,71,0.01,,OVC027,0.07,735.00,VWS V14.01,2013-03-21 18:06:00,
2013-03-21 14:07:00,27.2,19.1,29.82,NE,42,2.0,6.0,71,0.01,,OVC027,0.07,638.00,VWS V14.01,2013-03-21 18:07:00,
2013-03-21 14:08:00,27.2,19.1,29.82,WSW,258,3.0,6.0,71,0.01,,OVC027,0.07,352.00,VWS V14.01,2013-03-21 18:08:00,
2013-03-21 14:09:00,27.0,18.2,29.82,WSW,258,1.0,6.0,69,0.01,,OVC027,0.07,352.00,VWS V14.01,2013-03-21 18:09:00,
2013-03-21 14:10:00,27.0,18.5,29.82,West,266,0.0,6.0,70,0.01,,OVC027,0.07,394.00,VWS V14.01,2013-03-21 18:10:00,
2013-03-21 14:11:00,27.2,18.4,29.82,NW,311,4.0,6.0,69,0.02,,OVC027,0.08,394.00,VWS V14.01,2013-03-21 18:11:00,
2013-03-21 14:12:00,27.0,18.5,29.82,North,5,1.0,6.0,70,0.02,,OVC027,0.08,239.00,VWS V14.01,2013-03-21 18:12:00,
2013-03-21 14:13:00,27.0,18.5,29.82,NNW,346,0.0,6.0,70,0.02,,OVC027,0.08,253.00,VWS V14.01,2013-03-21 18:13:00,
2013-03-21 14:14:00,26.9,18.1,29.82,WNW,287,0.0,6.0,69,0.02,,OVC027,0.08,311.00,VWS V14.01,2013-03-21 18:14:00,
2013-03-21 14:15:00,26.9,18.1,29.82,WNW,286,0.0,6.0,69,0.02,,OVC027,0.08,381.00,VWS V14.01,2013-03-21 18:15:00,
2013-03-21 14:16:00,26.7,17.9,29.82,WNW,293,0.0,6.0,69,0.02,,OVC027,0.08,323.00,VWS V14.01,2013-03-21 18:16:00,
2013-03-21 14:17:00,26.9,18.4,29.82,WNW,292,0.0,6.0,70,0.02,,OVC027,0.08,323.00,VWS V14.01,2013-03-21 18:17:00,
2013-03-21 14:18:00,27.0,18.9,29.82,NW,309,0.0,6.0,71,0.02,,OVC027,0.08,343.00,VWS V14.01,2013-03-21 18:18:00,
2013-03-21 14:19:00,27.0,18.5,29.82,NW,309,1.0,6.0,70,0.02,,OVC027,0.08,287.00,VWS V14.01,2013-03-21 18:19:00,
2013-03-21 14:20:00,27.0,18.5,29.82,West,259,1.0,6.0,70,0.02,,OVC027,0.08,278.00,VWS V14.01,2013-03-21 18:20:00,
2013-03-21 14:21:00,26.9,18.1,29.82,NW,317,0.0,6.0,69,0.02,,OVC027,0.08,278.00,VWS V14.01,2013-03-21 18:21:00,
2013-03-21 14:22:00,27.0,18.2,29.82,NW,317,1.0,6.0,69,0.02,,OVC027,0.08,278.00,VWS V14.01,2013-03-21 18:22:00,
2013-03-21 14:23:00,27.0,18.5,29.82,WNW,290,2.0,6.0,70,0.02,,OVC027,0.08,278.00,VWS V14.01,2013-03-21 18:23:00,
2013-03-21 14:24:00,27.0,17.9,29.82,WSW,242,3.0,6.0,68,0.02,,OVC027,0.08,278.00,VWS V14.01,2013-03-21 18:24:00,
2013-03-21 14:25:00,26.9,17.8,29.82,West,277,0.0,6.0,68,0.02,,OVC027,0.08,278.00,VWS V14.01,2013-03-21 18:25:00,
2013-03-21 14:26:00,27.0,17.9,29.82,West,263,1.0,6.0,68,0.02,,OVC027,0.08,445.00,VWS V14.01,2013-03-21 18:26:00,
2013-03-21 14:27:00,27.2,18.4,29.82,WNW,285,2.0,6.0,69,0.02,,OVC027,0.08,445.00,VWS V14.01,2013-03-21 18:27:00,
2013-03-21 14:28:00,27.3,18.5,29.82,WSW,246,2.0,6.0,69,0.02,,OVC027,0.08,445.00,VWS V14.01,2013-03-21 18:28:00,
2013-03-21 14:29:00,27.5,18.3,29.82,NW,313,3.0,6.0,68,0.02,,OVC027,0.08,445.00,VWS V14.01,2013-03-21 18:29:00,
2013-03-21 14:30:00,27.5,18.3,29.81,NW,306,2.0,6.0,68,0.02,,OVC027,0.08,225.00,VWS V14.01,2013-03-21 18:30:00,
2013-03-21 14:31:00,27.5,17.6,29.81,West,275,0.0,6.0,66,0.01,,OVC027,0.08,225.00,VWS V14.01,2013-03-21 18:31:00,
2013-03-21 14:32:00,27.2,17.4,29.81,West,276,0.0,6.0,66,0.01,,OVC027,0.08,323.00,VWS V14.01,2013-03-21 18:32:00,
2013-03-21 14:33:00,27.2,17.7,29.81,West,275,1.0,6.0,67,0.01,,OVC027,0.08,497.00,VWS V14.01,2013-03-21 18:33:00,
2013-03-21 14:34:00,27.3,17.1,29.81,NW,320,0.0,6.0,65,0.01,,OVC027,0.08,497.00,VWS V14.01,2013-03-21 18:34:00,
2013-03-21 14:35:00,27.5,18.3,29.81,NNW,330,0.0,6.0,68,0.01,,OVC027,0.08,497.00,VWS V14.01,2013-03-21 18:35:00,
2013-03-21 14:36:00,27.8,18.3,29.81,NNW,328,0.0,6.0,67,0.01,,OVC027,0.08,497.00,VWS V14.01,2013-03-21 18:36:00,
2013-03-21 14:37:00,28.2,19.4,29.81,NW,319,1.0,6.0,69,0.01,,OVC027,0.08,944.00,VWS V14.01,2013-03-21 18:37:00,
2013-03-21 14:38:00,28.4,18.5,29.81,SW,227,2.0,6.0,66,0.01,,OVC027,0.08,944.00,VWS V14.01,2013-03-21 18:38:00,
2013-03-21 14:39:00,28.5,18.6,29.81,WNW,284,0.0,6.0,66,0.01,,OVC027,0.08,933.00,VWS V14.01,2013-03-21 18:39:00,
2013-03-21 14:40:00,29.0,19.8,29.81,NNW,337,2.0,6.0,68,0.01,,OVC027,0.08,946.00,VWS V14.01,2013-03-21 18:40:00,
2013-03-21 14:41:00,29.1,19.5,29.81,WNW,285,0.0,6.0,67,0.01,,OVC027,0.08,946.00,VWS V14.01,2013-03-21 18:41:00,
2013-03-21 14:42:00,29.3,19.4,29.81,WNW,298,2.0,6.0,66,0.01,,OVC027,0.08,431.00,VWS V14.01,2013-03-21 18:42:00,
2013-03-21 14:43:00,29.1,18.5,29.81,NNW,331,0.0,6.0,64,0.01,,OVC027,0.08,448.00,VWS V14.01,2013-03-21 18:43:00,
2013-03-21 14:44:00,29.0,18.4,29.81,NW,310,1.0,6.0,64,0.01,,OVC027,0.08,448.00,VWS V14.01,2013-03-21 18:44:00,
2013-03-21 14:45:00,29.1,19.2,29.81,NW,319,2.0,6.0,66,0.01,,OVC027,0.08,448.00,VWS V14.01,2013-03-21 18:45:00,
2013-03-21 14:46:00,29.3,20.1,29.81,West,275,3.0,6.0,68,0.01,,OVC027,0.08,1072.00,VWS V14.01,2013-03-21 18:46:00,
2013-03-21 14:47:00,29.3,19.0,29.81,West,265,0.0,6.0,65,0.01,,OVC027,0.08,1048.00,VWS V14.01,2013-03-21 18:47:00,
2013-03-21 14:48:00,29.5,18.8,29.81,West,272,0.0,6.0,64,0.01,,OVC027,0.08,1055.00,VWS V14.01,2013-03-21 18:48:00,
2013-03-21 14:49:00,29.7,19.8,29.81,SW,219,3.0,6.0,66,0.01,,OVC027,0.08,1055.00,VWS V14.01,2013-03-21 18:49:00,
2013-03-21 14:50:00,29.5,18.5,29.81,NW,314,1.0,6.0,63,0.01,,OVC027,0.08,415.00,VWS V14.01,2013-03-21 18:50:00,
2013-03-21 14:51:00,29.4,18.0,29.81,SW,217,0.0,6.0,62,0.01,,OVC027,0.08,415.00,VWS V14.01,2013-03-21 18:51:00,
2013-03-21 14:52:00,29.4,18.0,29.81,NNW,346,0.0,6.0,62,0.01,,OVC027,0.08,415.00,VWS V14.01,2013-03-21 18:52:00,
2013-03-21 14:53:00,29.4,18.0,29.81,NNW,346,0.0,6.0,62,0.01,,OVC027,0.08,415.00,VWS V14.01,2013-03-21 18:53:00,
2013-03-21 14:54:00,30.0,19.7,29.81,NW,313,0.0,6.0,65,0.01,,BKN025,0.08,415.00,VWS V14.01,2013-03-21 18:54:00,
2013-03-21 14:55:00,29.8,18.4,29.81,NW,313,0.0,6.0,62,0.01,,BKN025,0.08,415.00,VWS V14.01,2013-03-21 18:55:00,
2013-03-21 14:56:00,29.5,17.7,29.81,NW,313,1.0,6.0,61,0.01,,BKN025,0.08,390.00,VWS V14.01,2013-03-21 18:56:00,
2013-03-21 14:57:00,29.4,17.6,29.81,WNW,294,1.0,6.0,61,0.01,,BKN025,0.08,390.00,VWS V14.01,2013-03-21 18:57:00,
2013-03-21 14:58:00,29.4,18.7,29.81,WNW,294,0.0,6.0,64,0.01,,BKN025,0.08,1060.00,VWS V14.01,2013-03-21 18:58:00,
2013-03-21 14:59:00,29.5,18.1,29.81,WNW,294,0.0,6.0,62,0.01,,BKN025,0.08,1060.00,VWS V14.01,2013-03-21 18:59:00,
2013-03-21 15:00:00,30.0,20.0,29.80,West,259,1.0,6.0,66,0.01,,BKN025,0.08,1062.00,VWS V14.01,2013-03-21 19:00:00,
2013-03-21 15:01:00,30.0,20.0,29.80,West,259,1.0,6.0,66,0.01,,BKN025,0.08,1062.00,VWS V14.01,2013-03-21 19:01:00,
2013-03-21 15:02:00,30.3,19.6,29.80,NNW,329,3.0,6.0,64,0.01,,BKN025,0.08,1062.00,VWS V14.01,2013-03-21 19:02:00,
2013-03-21 15:03:00,30.3,20.0,29.80,West,277,2.0,6.0,65,0.01,,BKN025,0.08,1062.00,VWS V14.01,2013-03-21 19:03:00,
2013-03-21 15:04:00,30.1,19.0,29.80,WNW,298,1.0,6.0,63,0.01,,BKN025,0.08,1062.00,VWS V14.01,2013-03-21 19:04:00,
2013-03-21 15:05:00,30.1,19.4,29.80,NW,323,1.0,6.0,64,0.01,,BKN025,0.08,1062.00,VWS V14.01,2013-03-21 19:05:00,
2013-03-21 15:06:00,30.1,19.4,29.80,West,279,1.0,6.0,64,0.01,,BKN025,0.08,1062.00,VWS V14.01,2013-03-21 19:06:00,
2013-03-21 15:07:00,30.1,19.4,29.80,WNW,298,1.0,6.0,64,0.01,,BKN025,0.08,1062.00,VWS V14.01,2013-03-21 19:07:00,
2013-03-21 15:08:00,30.1,19.0,29.80,WNW,298,1.0,6.0,63,0.01,,BKN025,0.08,1062.00,VWS V14.01,2013-03-21 19:08:00,
2013-03-21 15:09:00,30.3,18.9,29.80,West,274,1.0,6.0,62,0.01,,BKN025,0.08,1062.00,VWS V14.01,2013-03-21 19:09:00,
2013-03-21 15:10:00,30.4,19.0,29.80,West,272,0.0,6.0,62,0.01,,BKN025,0.08,758.00,VWS V14.01,2013-03-21 19:10:00,
2013-03-21 15:11:00,30.3,19.2,29.80,East,90,2.0,6.0,63,0.01,,BKN025,0.08,283.00,VWS V14.01,2013-03-21 19:11:00,
2013-03-21 15:12:00,30.0,18.6,29.80,WNW,286,0.0,6.0,62,0.01,,BKN025,0.08,299.00,VWS V14.01,2013-03-21 19:12:00,
2013-03-21 15:13:00,29.7,18.3,29.80,WSW,245,4.0,6.0,62,0.01,,BKN025,0.08,304.00,VWS V14.01,2013-03-21 19:13:00,
2013-03-21 15:14:00,29.1,17.3,29.80,WSW,258,1.0,6.0,61,0.01,,BKN025,0.08,290.00,VWS V14.01,2013-03-21 19:14:00,
2013-03-21 15:15:00,29.0,16.9,29.80,WNW,299,2.0,6.0,60,0.01,,BKN025,0.08,290.00,VWS V14.01,2013-03-21 19:15:00,
2013-03-21 15:16:00,28.8,17.4,29.80,WNW,300,1.0,6.0,62,0.01,,BKN025,0.08,279.00,VWS V14.01,2013-03-21 19:16:00,
2013-03-21 15:17:00,28.5,17.9,29.80,WNW,300,1.0,6.0,64,0.01,,BKN025,0.08,271.00,VWS V14.01,2013-03-21 19:17:00,
2013-03-21 15:18:00,28.5,17.9,29.80,WNW,288,1.0,6.0,64,0.01,,BKN025,0.08,271.00,VWS V14.01,2013-03-21 19:18:00,
2013-03-21 15:19:00,28.2,17.6,29.80,WNW,288,1.0,6.0,64,0.01,,BKN025,0.08,272.00,VWS V14.01,2013-03-21 19:19:00,
2013-03-21 15:20:00,28.1,17.5,29.80,West,269,1.0,6.0,64,0.01,,BKN025,0.08,308.00,VWS V14.01,2013-03-21 19:20:00,
2013-03-21 15:21:00,28.1,17.5,29.80,West,279,0.0,6.0,64,0.01,,BKN025,0.08,403.00,VWS V14.01,2013-03-21 19:21:00,
2013-03-21 15:22:00,28.1,17.9,29.80,NW,317,1.0,6.0,65,0.01,,BKN025,0.08,403.00,VWS V14.01,2013-03-21 19:22:00,
2013-03-21 15:23:00,28.1,17.5,29.80,WNW,302,3.0,6.0,64,0.01,,BKN025,0.08,403.00,VWS V14.01,2013-03-21 19:23:00,
2013-03-21 15:24:00,28.2,17.6,29.80,NW,318,0.0,6.0,64,0.01,,BKN025,0.08,294.00,VWS V14.01,2013-03-21 19:24:00,
2013-03-21 15:25:00,28.2,18.0,29.80,NW,318,1.0,6.0,65,0.01,,BKN025,0.08,281.00,VWS V14.01,2013-03-21 19:25:00,
2013-03-21 15:26:00,28.2,18.3,29.80,NW,318,0.0,6.0,66,0.01,,BKN025,0.08,281.00,VWS V14.01,2013-03-21 19:26:00,
2013-03-21 15:27:00,28.2,18.0,29.80,WSW,258,0.0,6.0,65,0.01,,BKN025,0.08,241.00,VWS V14.01,2013-03-21 19:27:00,
2013-03-21 15:28:00,28.1,17.5,29.80,NNW,334,1.0,6.0,64,0.01,,BKN025,0.08,234.00,VWS V14.01,2013-03-21 19:28:00,
2013-03-21 15:29:00,28.1,18.2,29.80,NNW,334,2.0,6.0,66,0.01,,BKN025,0.08,288.00,VWS V14.01,2013-03-21 19:29:00,
2013-03-21 15:30:00,28.1,17.9,29.81,NNW,331,3.0,6.0,65,0.01,,BKN025,0.08,241.00,VWS V14.01,2013-03-21 19:30:00,
2013-03-21 15:31:00,27.9,17.3,29.81,NNW,337,1.0,6.0,64,0.00,,BKN025,0.08,221.00,VWS V14.01,2013-03-21 19:31:00,
2013-03-21 15:32:00,27.6,17.0,29.81,NW,308,2.0,6.0,64,0.00,,BKN025,0.08,213.00,VWS V14.01,2013-03-21 19:32:00,
2013-03-21 15:33:00,27.6,16.7,29.81,NW,308,0.0,6.0,63,0.00,,BKN025,0.08,206.00,VWS V14.01,2013-03-21 19:33:00,
2013-03-21 15:34:00,27.5,16.9,29.81,NNW,338,0.0,6.0,64,0.00,,BKN025,0.08,193.00,VWS V14.01,2013-03-21 19:34:00,
2013-03-21 15:35:00,27.6,17.7,29.81,NW,319,0.0,6.0,66,0.00,,BKN025,0.08,186.00,VWS V14.01,2013-03-21 19:35:00,
2013-03-21 15:36:00,27.5,17.3,29.81,NW,319,1.0,6.0,65,0.00,,BKN025,0.08,186.00,VWS V14.01,2013-03-21 19:36:00,
2013-03-21 15:37:00,27.5,17.6,29.81,NNW,327,2.0,6.0,66,0.00,,BKN025,0.08,185.00,VWS V14.01,2013-03-21 19:37:00,
2013-03-21 15:38:00,27.5,17.6,29.81,NNW,338,3.0,6.0,66,0.00,,BKN025,0.08,183.00,VWS V14.01,2013-03-21 19:38:00,
2013-03-21 15:39:00,27.5,17.6,29.81,NNW,338,2.0,6.0,66,0.00,,BKN025,0.08,186.00,VWS V14.01,2013-03-21 19:39:00,
2013-03-21 15:40:00,27.6,18.1,29.81,NNW,338,0.0,6.0,67,0.00,,BKN025,0.08,192.00,VWS V14.01,2013-03-21 19:40:00,
2013-03-21 15:41:00,27.6,18.1,29.81,NW,320,2.0,6.0,67,0.00,,BKN025,0.08,199.00,VWS V14.01,2013-03-21 19:41:00,
2013-03-21 15:42:00,27.6,17.7,29.81,WNW,294,0.0,6.0,66,0.00,,BKN025,0.08,209.00,VWS V14.01,2013-03-21 19:42:00,
2013-03-21 15:43:00,27.5,17.6,29.81,WNW,291,2.0,6.0,66,0.00,,BKN025,0.08,209.00,VWS V14.01,2013-03-21 19:43:00,
2013-03-21 15:44:00,27.5,17.6,29.81,NW,309,2.0,6.0,66,0.00,,BKN025,0.08,218.00,VWS V14.01,2013-03-21 19:44:00,
2013-03-21 15:45:00,27.3,17.5,29.81,NNE,17,2.0,6.0,66,0.00,,BKN025,0.08,229.00,VWS V14.01,2013-03-21 19:45:00,
2013-03-21 15:46:00,27.3,17.5,29.81,WNW,293,0.0,6.0,66,0.00,,BKN025,0.08,232.00,VWS V14.01,2013-03-21 19:46:00,
2013-03-21 15:47:00,27.3,17.8,29.81,WNW,293,1.0,6.0,67,0.00,,BKN025,0.08,202.00,VWS V14.01,2013-03-21 19:47:00,
2013-03-21 15:48:00,27.3,17.8,29.81,WNW,293,0.0,6.0,67,0.00,,BKN025,0.08,195.00,VWS V14.01,2013-03-21 19:48:00,
2013-03-21 15:49:00,27.3,17.8,29.81,South,179,1.0,6.0,67,0.00,,BKN025,0.08,190.00,VWS V14.01,2013-03-21 19:49:00,
2013-03-21 15:50:00,27.3,17.5,29.81,SW,227,0.0,6.0,66,0.00,,BKN025,0.08,185.00,VWS V14.01,2013-03-21 19:50:00,
2013-03-21 15:51:00,27.3,17.5,29.81,WSW,257,4.0,6.0,66,0.00,,BKN025,0.08,179.00,VWS V14.01,2013-03-21 19:51:00,
2013-03-21 15:52:00,27.3,17.8,29.81,WNW,285,1.0,6.0,67,0.00,,BKN025,0.08,176.00,VWS V14.01,2013-03-21 19:52:00,
2013-03-21 15:53:00,27.3,17.5,29.81,West,260,0.0,6.0,66,0.00,,BKN025,0.08,156.00,VWS V14.01,2013-03-21 19:53:00,
2013-03-21 15:54:00,27.2,17.4,29.81,NE,52,1.0,6.0,66,0.00,,OVC027,0.08,162.00,VWS V14.01,2013-03-21 19:54:00,
2013-03-21 15:55:00,27.2,17.4,29.81,NE,55,0.0,6.0,66,0.00,,OVC027,0.08,162.00,VWS V14.01,2013-03-21 19:55:00,
2013-03-21 15:56:00,27.2,17.7,29.81,WNW,284,0.0,6.0,67,0.00,,OVC027,0.08,151.00,VWS V14.01,2013-03-21 19:56:00,
2013-03-21 15:57:00,27.3,17.8,29.81,WSW,254,0.0,6.0,67,0.00,,OVC027,0.08,146.00,VWS V14.01,2013-03-21 19:57:00,
2013-03-21 15:58:00,27.2,17.7,29.81,WNW,298,0.0,6.0,67,0.00,,OVC027,0.08,148.00,VWS V14.01,2013-03-21 19:58:00,
2013-03-21 15:59:00,27.3,17.5,29.81,NNW,332,3.0,6.0,66,0.00,,OVC027,0.08,160.00,VWS V14.01,2013-03-21 19:59:00,
2013-03-21 16:00:00,27.2,17.7,29.81,NNW,346,0.0,6.0,67,0.00,,OVC027,0.08,158.00,VWS V14.01,2013-03-21 20:00:00,
2013-03-21 16:01:00,27.3,17.5,29.81,NW,320,1.0,6.0,66,0.00,,OVC027,0.08,153.00,VWS V14.01,2013-03-21 20:01:00,
2013-03-21 16:02:00,27.3,18.1,29.81,West,277,1.0,6.0,68,0.00,,OVC027,0.08,151.00,VWS V14.01,2013-03-21 20:02:00,
2013-03-21 16:03:00,27.3,17.8,29.81,West,277,0.0,6.0,67,0.00,,OVC027,0.08,153.00,VWS V14.01,2013-03-21 20:03:00,
2013-03-21 16:04:00,27.3,17.5,29.81,WNW,296,0.0,6.0,66,0.00,,OVC027,0.08,169.00,VWS V14.01,2013-03-21 20:04:00,
2013-03-21 16:05:00,27.3,17.8,29.81,NNW,343,3.0,6.0,67,0.00,,OVC027,0.08,176.00,VWS V14.01,2013-03-21 20:05:00,
2013-03-21 16:06:00,27.3,17.5,29.81,NNW,342,0.0,6.0,66,0.00,,OVC027,0.08,178.00,VWS V14.01,2013-03-21 20:06:00,
2013-03-21 16:07:00,27.3,17.5,29.81,NNW,341,1.0,6.0,66,0.00,,OVC027,0.08,178.00,VWS V14.01,2013-03-21 20:07:00,
2013-03-21 16:08:00,27.3,17.5,29.81,NW,307,1.0,6.0,66,0.00,,OVC027,0.08,176.00,VWS V14.01,2013-03-21 20:08:00,
2013-03-21 16:09:00,27.2,17.4,29.81,NW,307,0.0,6.0,66,0.00,,OVC027,0.08,179.00,VWS V14.01,2013-03-21 20:09:00,
2013-03-21 16:10:00,27.3,17.8,29.81,WNW,302,0.0,6.0,67,0.00,,OVC027,0.08,202.00,VWS V14.01,2013-03-21 20:10:00,
2013-03-21 16:11:00,27.3,17.8,29.81,WNW,302,0.0,6.0,67,0.00,,OVC027,0.08,207.00,VWS V14.01,2013-03-21 20:11:00,
2013-03-21 16:12:00,27.3,17.8,29.81,WNW,298,1.0,6.0,67,0.00,,OVC027,0.08,207.00,VWS V14.01,2013-03-21 20:12:00,
2013-03-21 16:13:00,27.5,18.0,29.81,NNW,346,3.0,6.0,67,0.00,,OVC027,0.08,199.00,VWS V14.01,2013-03-21 20:13:00,
2013-03-21 16:14:00,27.5,17.6,29.81,NNW,327,2.0,6.0,66,0.00,,OVC027,0.08,183.00,VWS V14.01,2013-03-21 20:14:00,
2013-03-21 16:15:00,27.5,17.6,29.81,NNW,338,0.0,6.0,66,0.00,,OVC027,0.08,186.00,VWS V14.01,2013-03-21 20:15:00,
2013-03-21 16:16:00,27.3,17.1,29.81,WNW,288,1.0,6.0,65,0.00,,OVC027,0.08,214.00,VWS V14.01,2013-03-21 20:16:00,
2013-03-21 16:17:00,27.3,17.1,29.81,NW,311,1.0,6.0,65,0.00,,OVC027,0.08,214.00,VWS V14.01,2013-03-21 20:17:00,
2013-03-21 16:18:00,27.3,17.5,29.81,NW,311,0.0,6.0,66,0.00,,OVC027,0.08,214.00,VWS V14.01,2013-03-21 20:18:00,
2013-03-21 16:19:00,27.5,18.3,29.81,NW,311,2.0,6.0,68,0.00,,OVC027,0.08,209.00,VWS V14.01,2013-03-21 20:19:00,
2013-03-21 16:20:00,27.5,17.6,29.81,NNW,327,1.0,6.0,66,0.00,,OVC027,0.08,206.00,VWS V14.01,2013-03-21 20:20:00,
2013-03-21 16:21:00,27.5,17.6,29.81,NNW,336,2.0,6.0,66,0.00,,OVC027,0.08,206.00,VWS V14.01,2013-03-21 20:21:00,
2013-03-21 16:22:00,27.5,17.3,29.81,NW,324,2.0,6.0,65,0.00,,OVC027,0.08,218.00,VWS V14.01,2013-03-21 20:22:00,
2013-03-21 16:23:00,27.5,17.3,29.81,WNW,303,3.0,6.0,65,0.00,,OVC027,0.08,239.00,VWS V14.01,2013-03-21 20:23:00,
2013-03-21 16:24:00,27.3,16.8,29.81,NW,304,0.0,6.0,64,0.00,,OVC027,0.08,265.00,VWS V14.01,2013-03-21 20:24:00,
2013-03-21 16:25:00,27.3,16.8,29.81,NW,323,0.0,6.0,64,0.00,,OVC027,0.08,272.00,VWS V14.01,2013-03-21 20:25:00,
2013-03-21 16:26:00,27.5,17.3,29.81,West,262,0.0,6.0,65,0.00,,OVC027,0.08,264.00,VWS V14.01,2013-03-21 20:26:00,
2013-03-21 16:27:00,27.6,17.4,29.81,NW,306,0.0,6.0,65,0.00,,OVC027,0.08,258.00,VWS V14.01,2013-03-21 20:27:00,
2013-03-21 16:28:00,27.8,17.9,29.81,NW,306,0.0,6.0,66,0.00,,OVC027,0.08,244.00,VWS V14.01,2013-03-21 20:28:00,
2013-03-21 16:29:00,27.8,17.6,29.81,NW,306,0.0,6.0,65,0.00,,OVC027,0.08,230.00,VWS V14.01,2013-03-21 20:29:00,
2013-03-21 16:30:00,27.8,17.6,29.81,NNW,346,4.0,6.0,65,0.00,,OVC027,0.08,225.00,VWS V14.01,2013-03-21 20:30:00,
2013-03-21 16:31:00,27.8,17.6,29.81,NW,315,2.0,6.0,65,0.00,,OVC027,0.08,229.00,VWS V14.01,2013-03-21 20:31:00,
2013-03-21 16:32:00,27.8,17.2,29.81,NW,315,0.0,6.0,64,0.00,,OVC027,0.08,229.00,VWS V14.01,2013-03-21 20:32:00,
2013-03-21 16:33:00,28.1,17.9,29.81,West,266,0.0,6.0,65,0.00,,OVC027,0.08,229.00,VWS V14.01,2013-03-21 20:33:00,
2013-03-21 16:34:00,28.4,18.5,29.81,West,266,1.0,6.0,66,0.00,,OVC027,0.08,661.00,VWS V14.01,2013-03-21 20:34:00,
2013-03-21 16:35:00,28.5,17.9,29.81,NW,323,0.0,6.0,64,0.00,,OVC027,0.08,693.00,VWS V14.01,2013-03-21 20:35:00,
2013-03-21 16:36:00,28.8,18.5,29.81,NW,323,0.0,6.0,65,0.00,,OVC027,0.08,700.00,VWS V14.01,2013-03-21 20:36:00,
2013-03-21 16:37:00,29.1,18.8,29.81,West,259,0.0,6.0,65,0.00,,OVC027,0.08,700.00,VWS V14.01,2013-03-21 20:37:00,
2013-03-21 16:38:00,29.0,17.6,29.81,SW,228,0.0,6.0,62,0.00,,OVC027,0.08,700.00,VWS V14.01,2013-03-21 20:38:00,
2013-03-21 16:39:00,29.1,17.7,29.81,SW,228,0.0,6.0,62,0.00,,OVC027,0.08,700.00,VWS V14.01,2013-03-21 20:39:00,
2013-03-21 16:40:00,29.1,17.7,29.81,SW,228,0.0,6.0,62,0.00,,OVC027,0.08,700.00,VWS V14.01,2013-03-21 20:40:00,
2013-03-21 16:41:00,29.3,17.9,29.81,NW,306,4.0,6.0,62,0.00,,OVC027,0.08,309.00,VWS V14.01,2013-03-21 20:41:00,
2013-03-21 16:42:00,29.4,18.0,29.81,NNW,346,0.0,6.0,62,0.00,,OVC027,0.08,309.00,VWS V14.01,2013-03-21 20:42:00,
2013-03-21 16:43:00,29.3,17.1,29.81,West,266,3.0,6.0,60,0.00,,OVC027,0.08,309.00,VWS V14.01,2013-03-21 20:43:00,
2013-03-21 16:44:00,29.1,17.7,29.81,NW,325,1.0,6.0,62,0.00,,OVC027,0.08,309.00,VWS V14.01,2013-03-21 20:44:00,
2013-03-21 16:45:00,29.1,17.7,29.81,NW,309,0.0,6.0,62,0.00,,OVC027,0.08,278.00,VWS V14.01,2013-03-21 20:45:00,
2013-03-21 16:46:00,29.1,17.3,29.81,NNW,341,0.0,6.0,61,0.00,,OVC027,0.08,253.00,VWS V14.01,2013-03-21 20:46:00,
2013-03-21 16:47:00,29.0,17.6,29.81,NNW,341,0.0,6.0,62,0.00,,OVC027,0.08,239.00,VWS V14.01,2013-03-21 20:47:00,
2013-03-21 16:48:00,29.0,18.0,29.81,WNW,296,0.0,6.0,63,0.00,,OVC027,0.08,223.00,VWS V14.01,2013-03-21 20:48:00,
2013-03-21 16:49:00,29.0,18.0,29.81,WNW,296,0.0,6.0,63,0.00,,OVC027,0.08,216.00,VWS V14.01,2013-03-21 20:49:00,
2013-03-21 16:50:00,29.1,18.1,29.81,WNW,296,0.0,6.0,63,0.00,,OVC027,0.08,204.00,VWS V14.01,2013-03-21 20:50:00,
2013-03-21 16:51:00,29.1,18.5,29.81,WNW,295,1.0,6.0,64,0.00,,OVC027,0.08,213.00,VWS V14.01,2013-03-21 20:51:00,
2013-03-21 16:52:00,29.0,17.6,29.81,WNW,295,0.0,6.0,62,0.00,,OVC027,0.08,227.00,VWS V14.01,2013-03-21 20:52:00,
2013-03-21 16:53:00,29.0,18.4,29.81,WNW,295,0.0,6.0,64,0.00,,OVC027,0.08,227.00,VWS V14.01,2013-03-21 20:53:00,
2013-03-21 16:54:00,29.0,18.4,29.81,WSW,257,2.0,6.0,64,0.00,,BKN029,0.08,227.00,VWS V14.01,2013-03-21 20:54:00,
2013-03-21 16:55:00,28.8,17.4,29.81,WSW,257,0.0,6.0,62,0.00,,BKN029,0.08,227.00,VWS V14.01,2013-03-21 20:55:00,
2013-03-21 16:56:00,28.8,17.8,29.81,NNE,26,2.0,6.0,63,0.00,,BKN029,0.08,227.00,VWS V14.01,2013-03-21 20:56:00,
2013-03-21 16:57:00,28.8,17.8,29.81,NW,316,1.0,6.0,63,0.00,,BKN029,0.08,471.00,VWS V14.01,2013-03-21 20:57:00,
2013-03-21 16:58:00,29.0,18.4,29.81,West,279,1.0,6.0,64,0.00,,BKN029,0.08,555.00,VWS V14.01,2013-03-21 20:58:00,
2013-03-21 16:59:00,29.0,17.6,29.81,West,276,0.0,6.0,62,0.00,,BKN029,0.08,527.00,VWS V14.01,2013-03-21 20:59:00,
2013-03-21 17:00:00,29.1,18.1,29.81,NW,310,1.0,6.0,63,0.00,,BKN029,0.08,462.00,VWS V14.01,2013-03-21 21:00:00,
2013-03-21 17:01:00,29.3,18.6,29.81,NNW,337,2.0,6.0,64,0.00,,BKN029,0.08,462.00,VWS V14.01,2013-03-21 21:01:00,
2013-03-21 17:02:00,29.3,18.6,29.81,West,267,1.0,6.0,64,0.00,,BKN029,0.08,199.00,VWS V14.01,2013-03-21 21:02:00,
2013-03-21 17:03:00,29.3,17.9,29.81,West,261,1.0,6.0,62,0.00,,BKN029,0.08,207.00,VWS V14.01,2013-03-21 21:03:00,
2013-03-21 17:04:00,29.1,18.1,29.81,West,272,1.0,6.0,63,0.00,,BKN029,0.08,432.00,VWS V14.01,2013-03-21 21:04:00,
2013-03-21 17:05:00,29.0,18.0,29.81,WNW,301,3.0,6.0,63,0.00,,BKN029,0.08,432.00,VWS V14.01,2013-03-21 21:05:00,
2013-03-21 17:06:00,29.0,18.0,29.81,WNW,302,0.0,6.0,63,0.00,,BKN029,0.08,253.00,VWS V14.01,2013-03-21 21:06:00,
2013-03-21 17:07:00,28.8,17.8,29.81,WNW,302,0.0,6.0,63,0.00,,BKN029,0.08,269.00,VWS V14.01,2013-03-21 21:07:00,
2013-03-21 17:08:00,28.8,18.2,29.81,WNW,301,1.0,6.0,64,0.00,,BKN029,0.08,345.00,VWS V14.01,2013-03-21 21:08:00,
2013-03-21 17:09:00,28.8,17.4,29.81,WNW,301,0.0,6.0,62,0.00,,BKN029,0.08,334.00,VWS V14.01,2013-03-21 21:09:00,
2013-03-21 17:10:00,29.1,18.5,29.81,WNW,301,0.0,6.0,64,0.00,,BKN029,0.08,348.00,VWS V14.01,2013-03-21 21:10:00,
2013-03-21 17:11:00,29.4,18.7,29.81,NW,325,1.0,6.0,64,0.00,,BKN029,0.08,364.00,VWS V14.01,2013-03-21 21:11:00,
2013-03-21 17:12:00,29.4,18.4,29.81,NW,325,0.0,6.0,63,0.00,,BKN029,0.08,364.00,VWS V14.01,2013-03-21 21:12:00,
2013-03-21 17:13:00,29.4,18.4,29.81,WNW,296,0.0,6.0,63,0.00,,BKN029,0.08,364.00,VWS V14.01,2013-03-21 21:13:00,
2013-03-21 17:14:00,29.4,18.4,29.81,WNW,296,0.0,6.0,63,0.00,,BKN029,0.08,364.00,VWS V14.01,2013-03-21 21:14:00,
2013-03-21 17:15:00,29.4,18.4,29.80,NW,304,3.0,6.0,63,0.00,,BKN029,0.08,274.00,VWS V14.01,2013-03-21 21:15:00,
2013-03-21 17:16:00,29.3,17.9,29.80,NNW,344,1.0,6.0,62,0.00,,BKN029,0.08,274.00,VWS V14.01,2013-03-21 21:16:00,
2013-03-21 17:17:00,29.3,17.9,29.80,WNW,302,2.0,6.0,62,0.00,,BKN029,0.08,274.00,VWS V14.01,2013-03-21 21:17:00,
2013-03-21 17:18:00,29.1,17.3,29.80,North,11,4.0,6.0,61,0.00,,BKN029,0.08,274.00,VWS V14.01,2013-03-21 21:18:00,
2013-03-21 17:19:00,29.0,17.2,29.80,NW,320,0.0,6.0,61,0.00,,BKN029,0.08,162.00,VWS V14.01,2013-03-21 21:19:00,
2013-03-21 17:20:00,29.1,17.7,29.80,NW,320,0.0,6.0,62,0.00,,BKN029,0.08,162.00,VWS V14.01,2013-03-21 21:20:00,
2013-03-21 17:21:00,29.3,18.6,29.80,NW,320,0.0,6.0,64,0.00,,BKN029,0.08,200.00,VWS V14.01,2013-03-21 21:21:00,
2013-03-21 17:22:00,29.3,18.3,29.80,WNW,287,1.0,6.0,63,0.00,,BKN029,0.08,199.00,VWS V14.01,2013-03-21 21:22:00,
2013-03-21 17:23:00,29.1,17.0,29.80,NNW,347,0.0,6.0,60,0.00,,BKN029,0.08,236.00,VWS V14.01,2013-03-21 21:23:00,
2013-03-21 17:24:00,29.0,17.2,29.80,WNW,296,0.0,6.0,61,0.00,,BKN031,0.08,192.00,VWS V14.01,2013-03-21 21:24:00,
2013-03-21 17:25:00,29.0,17.6,29.80,SSW,213,0.0,6.0,62,0.00,,BKN031,0.08,192.00,VWS V14.01,2013-03-21 21:25:00,
2013-03-21 17:26:00,28.8,17.1,29.80,WSW,242,0.0,6.0,61,0.00,,BKN031,0.08,171.00,VWS V14.01,2013-03-21 21:26:00,
2013-03-21 17:27:00,28.8,17.1,29.80,WSW,242,0.0,6.0,61,0.00,,BKN031,0.08,267.00,VWS V14.01,2013-03-21 21:27:00,
2013-03-21 17:28:00,28.8,17.1,29.80,SW,217,1.0,6.0,61,0.00,,BKN031,0.08,290.00,VWS V14.01,2013-03-21 21:28:00,
2013-03-21 17:29:00,28.8,17.1,29.80,WSW,257,0.0,6.0,61,0.00,,BKN031,0.08,288.00,VWS V14.01,2013-03-21 21:29:00,
2013-03-21 17:30:00,28.8,16.7,29.80,WNW,283,1.0,6.0,60,0.00,,BKN031,0.08,253.00,VWS V14.01,2013-03-21 21:30:00,
2013-03-21 17:31:00,28.8,17.1,29.80,West,278,0.0,6.0,61,0.00,,BKN031,0.08,251.00,VWS V14.01,2013-03-21 21:31:00,
2013-03-21 17:32:00,28.8,17.1,29.80,West,259,1.0,6.0,61,0.00,,BKN031,0.08,281.00,VWS V14.01,2013-03-21 21:32:00,
2013-03-21 17:33:00,28.8,16.7,29.80,WSW,246,2.0,6.0,60,0.00,,BKN031,0.08,287.00,VWS V14.01,2013-03-21 21:33:00,
2013-03-21 17:34:00,28.8,17.1,29.80,North,350,1.0,6.0,61,0.00,,BKN031,0.08,230.00,VWS V14.01,2013-03-21 21:34:00,
2013-03-21 17:35:00,28.8,16.7,29.80,NW,324,2.0,6.0,60,0.00,,BKN031,0.08,160.00,VWS V14.01,2013-03-21 21:35:00,
2013-03-21 17:36:00,28.8,16.7,29.80,NNW,340,0.0,6.0,60,0.00,,BKN031,0.08,227.00,VWS V14.01,2013-03-21 21:36:00,
2013-03-21 17:37:00,28.7,17.0,29.80,SSW,204,0.0,6.0,61,0.00,,BKN031,0.08,149.00,VWS V14.01,2013-03-21 21:37:00,
2013-03-21 17:38:00,28.7,17.0,29.80,NW,325,2.0,6.0,61,0.00,,BKN031,0.08,141.00,VWS V14.01,2013-03-21 21:38:00,
2013-03-21 17:39:00,28.5,16.4,29.80,North,355,1.0,6.0,60,0.00,,BKN031,0.08,163.00,VWS V14.01,2013-03-21 21:39:00,
2013-03-21 17:40:00,28.5,16.4,29.80,NNW,330,5.0,6.0,60,0.00,,BKN031,0.08,156.00,VWS V14.01,2013-03-21 21:40:00,
2013-03-21 17:41:00,28.2,16.1,29.80,NW,316,0.0,6.0,60,0.00,,BKN031,0.08,121.00,VWS V14.01,2013-03-21 21:41:00,
2013-03-21 17:42:00,28.2,16.1,29.80,NW,308,0.0,6.0,60,0.00,,BKN031,0.08,104.00,VWS V14.01,2013-03-21 21:42:00,
2013-03-21 17:43:00,28.1,16.4,29.80,NW,313,4.0,6.0,61,0.00,,BKN031,0.08,93.00,VWS V14.01,2013-03-21 21:43:00,
2013-03-21 17:44:00,27.9,15.8,29.80,NNW,344,5.0,6.0,60,0.00,,BKN031,0.08,120.00,VWS V14.01,2013-03-21 21:44:00,
2013-03-21 17:45:00,27.9,15.8,29.81,NNW,338,3.0,6.0,60,0.00,,BKN031,0.08,127.00,VWS V14.01,2013-03-21 21:45:00,
2013-03-21 17:46:00,27.8,16.1,29.81,NNW,348,4.0,6.0,61,0.00,,BKN031,0.08,109.00,VWS V14.01,2013-03-21 21:46:00,
2013-03-21 17:47:00,27.8,16.1,29.81,NNW,333,0.0,6.0,61,0.00,,BKN031,0.08,98.00,VWS V14.01,2013-03-21 21:47:00,
2013-03-21 17:48:00,27.8,16.1,29.81,NNW,333,0.0,6.0,61,0.00,,BKN031,0.08,97.00,VWS V14.01,2013-03-21 21:48:00,
2013-03-21 17:49:00,27.8,16.9,29.81,NNW,332,0.0,6.0,63,0.00,,BKN031,0.08,105.00,VWS V14.01,2013-03-21 21:49:00,
2013-03-21 17:50:00,27.8,16.9,29.81,NNW,332,0.0,6.0,63,0.00,,BKN031,0.08,160.00,VWS V14.01,2013-03-21 21:50:00,
2013-03-21 17:51:00,27.8,16.9,29.81,NNW,332,2.0,6.0,63,0.00,,BKN031,0.08,141.00,VWS V14.01,2013-03-21 21:51:00,
2013-03-21 17:52:00,27.6,17.0,29.81,NNW,329,1.0,6.0,64,0.00,,BKN031,0.08,107.00,VWS V14.01,2013-03-21 21:52:00,
2013-03-21 17:53:00,27.6,16.7,29.81,West,279,1.0,6.0,63,0.00,,BKN031,0.08,98.00,VWS V14.01,2013-03-21 21:53:00,
2013-03-21 17:54:00,27.6,16.7,29.81,NNW,341,1.0,6.0,63,0.00,,FEW031,0.08,88.00,VWS V14.01,2013-03-21 21:54:00,
2013-03-21 17:55:00,27.5,16.6,29.81,WNW,284,0.0,6.0,63,0.00,,FEW031,0.08,165.00,VWS V14.01,2013-03-21 21:55:00,
2013-03-21 17:56:00,27.5,16.6,29.81,West,265,0.0,6.0,63,0.00,,FEW031,0.08,178.00,VWS V14.01,2013-03-21 21:56:00,
2013-03-21 17:57:00,27.5,16.9,29.81,West,265,0.0,6.0,64,0.00,,FEW031,0.08,137.00,VWS V14.01,2013-03-21 21:57:00,
2013-03-21 17:58:00,27.5,16.9,29.81,West,265,0.0,6.0,64,0.00,,FEW031,0.08,111.00,VWS V14.01,2013-03-21 21:58:00,
2013-03-21 17:59:00,27.5,16.9,29.81,NNE,17,6.0,6.0,64,0.00,,FEW031,0.08,91.00,VWS V14.01,2013-03-21 21:59:00,
2013-03-21 18:00:00,27.6,17.0,29.80,NW,305,0.0,6.0,64,0.00,,FEW031,0.08,83.00,VWS V14.01,2013-03-21 22:00:00,
2013-03-21 18:01:00,27.6,17.0,29.80,NW,305,0.0,6.0,64,0.00,,FEW031,0.08,79.00,VWS V14.01,2013-03-21 22:01:00,
2013-03-21 18:02:00,27.6,17.0,29.80,NW,305,0.0,6.0,64,0.00,,FEW031,0.08,69.00,VWS V14.01,2013-03-21 22:02:00,
2013-03-21 18:03:00,27.6,16.7,29.80,NW,305,0.0,6.0,63,0.00,,FEW031,0.08,56.00,VWS V14.01,2013-03-21 22:03:00,
2013-03-21 18:04:00,27.6,16.7,29.80,NW,305,0.0,6.0,63,0.00,,FEW031,0.08,58.00,VWS V14.01,2013-03-21 22:04:00,
2013-03-21 18:05:00,27.5,16.6,29.80,SW,215,3.0,6.0,63,0.00,,FEW031,0.08,67.00,VWS V14.01,2013-03-21 22:05:00,
2013-03-21 18:06:00,27.5,16.2,29.80,West,278,0.0,6.0,62,0.00,,FEW031,0.08,72.00,VWS V14.01,2013-03-21 22:06:00,
2013-03-21 18:07:00,27.5,16.6,29.80,West,278,0.0,6.0,63,0.00,,FEW031,0.08,62.00,VWS V14.01,2013-03-21 22:07:00,
2013-03-21 18:08:00,27.5,16.6,29.80,NNW,338,3.0,6.0,63,0.00,,FEW031,0.08,39.00,VWS V14.01,2013-03-21 22:08:00,
2013-03-21 18:09:00,27.5,16.6,29.80,NNW,338,1.0,6.0,63,0.00,,FEW031,0.08,42.00,VWS V14.01,2013-03-21 22:09:00,
2013-03-21 18:10:00,27.5,16.2,29.80,WNW,294,2.0,6.0,62,0.00,,FEW031,0.08,42.00,VWS V14.01,2013-03-21 22:10:00,
2013-03-21 18:11:00,27.5,16.2,29.80,WNW,294,1.0,6.0,62,0.00,,FEW031,0.08,39.00,VWS V14.01,2013-03-21 22:11:00,
2013-03-21 18:12:00,27.5,16.2,29.80,WNW,294,1.0,6.0,62,0.00,,FEW031,0.08,40.00,VWS V14.01,2013-03-21 22:12:00,
2013-03-21 18:13:00,27.3,16.0,29.80,WNW,294,0.0,6.0,62,0.00,,FEW031,0.08,37.00,VWS V14.01,2013-03-21 22:13:00,
2013-03-21 18:14:00,27.3,16.0,29.80,WNW,294,0.0,6.0,62,0.00,,FEW031,0.08,42.00,VWS V14.01,2013-03-21 22:14:00,
2013-03-21 18:15:00,27.3,16.4,29.80,WNW,294,0.0,6.0,63,0.00,,FEW031,0.08,39.00,VWS V14.01,2013-03-21 22:15:00,
2013-03-21 18:16:00,27.3,16.0,29.80,WSW,256,0.0,6.0,62,0.00,,FEW031,0.08,37.00,VWS V14.01,2013-03-21 22:16:00,
2013-03-21 18:17:00,27.3,16.0,29.80,WSW,256,0.0,6.0,62,0.00,,FEW031,0.08,33.00,VWS V14.01,2013-03-21 22:17:00,
2013-03-21 18:18:00,27.3,16.4,29.80,WSW,256,0.0,6.0,63,0.00,,FEW031,0.08,30.00,VWS V14.01,2013-03-21 22:18:00,
2013-03-21 18:19:00,27.3,16.8,29.80,WSW,256,0.0,6.0,64,0.00,,FEW031,0.08,32.00,VWS V14.01,2013-03-21 22:19:00,
2013-03-21 18:20:00,27.3,16.4,29.80,WSW,256,0.0,6.0,63,0.00,,FEW031,0.08,32.00,VWS V14.01,2013-03-21 22:20:00,
2013-03-21 18:21:00,27.3,16.4,29.80,WSW,257,0.0,6.0,63,0.00,,FEW031,0.08,28.00,VWS V14.01,2013-03-21 22:21:00,
2013-03-21 18:22:00,27.3,16.4,29.80,West,262,1.0,6.0,63,0.00,,FEW031,0.08,28.00,VWS V14.01,2013-03-21 22:22:00,
2013-03-21 18:23:00,27.2,16.3,29.80,NW,320,0.0,6.0,63,0.00,,FEW031,0.08,30.00,VWS V14.01,2013-03-21 22:23:00,
2013-03-21 18:24:00,27.2,16.3,29.80,NNW,346,0.0,6.0,63,0.00,,FEW031,0.08,35.00,VWS V14.01,2013-03-21 22:24:00,
2013-03-21 18:25:00,27.2,15.9,29.80,West,259,0.0,6.0,62,0.00,,FEW031,0.08,33.00,VWS V14.01,2013-03-21 22:25:00,
2013-03-21 18:26:00,27.2,15.9,29.80,West,259,0.0,6.0,62,0.00,,FEW031,0.08,28.00,VWS V14.01,2013-03-21 22:26:00,
2013-03-21 18:27:00,27.0,15.7,29.80,West,259,0.0,6.0,62,0.00,,FEW031,0.08,26.00,VWS V14.01,2013-03-21 22:27:00,
2013-03-21 18:28:00,27.0,15.7,29.80,NNW,342,1.0,6.0,62,0.00,,FEW031,0.08,28.00,VWS V14.01,2013-03-21 22:28:00,
2013-03-21 18:29:00,27.0,15.7,29.80,NNW,327,0.0,6.0,62,0.00,,FEW031,0.08,28.00,VWS V14.01,2013-03-21 22:29:00,
2013-03-21 18:30:00,27.0,15.7,29.80,NW,321,0.0,6.0,62,0.00,,FEW031,0.08,30.00,VWS V14.01,2013-03-21 22:30:00,
2013-03-21 18:31:00,27.0,15.7,29.80,NW,321,0.0,6.0,62,0.00,,FEW031,0.08,32.00,VWS V14.01,2013-03-21 22:31:00,
2013-03-21 18:32:00,26.9,15.6,29.80,NW,321,0.0,6.0,62,0.00,,FEW031,0.08,32.00,VWS V14.01,2013-03-21 22:32:00,
2013-03-21 18:33:00,26.9,15.6,29.80,NW,321,0.0,6.0,62,0.00,,FEW031,0.08,32.00,VWS V14.01,2013-03-21 22:33:00,
2013-03-21 18:34:00,26.9,15.6,29.80,NW,321,0.0,6.0,62,0.00,,FEW031,0.08,35.00,VWS V14.01,2013-03-21 22:34:00,
2013-03-21 18:35:00,26.9,15.6,29.80,NW,321,1.0,6.0,62,0.00,,FEW031,0.08,33.00,VWS V14.01,2013-03-21 22:35:00,
2013-03-21 18:36:00,26.9,15.6,29.80,NW,317,0.0,6.0,62,0.00,,FEW031,0.08,30.00,VWS V14.01,2013-03-21 22:36:00,
2013-03-21 18:37:00,26.9,15.6,29.80,NW,317,1.0,6.0,62,0.00,,FEW031,0.08,26.00,VWS V14.01,2013-03-21 22:37:00,
2013-03-21 18:38:00,26.9,15.6,29.80,NW,317,0.0,6.0,62,0.00,,FEW031,0.08,25.00,VWS V14.01,2013-03-21 22:38:00,
2013-03-21 18:39:00,26.9,16.0,29.80,NW,309,0.0,6.0,63,0.00,,FEW031,0.08,25.00,VWS V14.01,2013-03-21 22:39:00,
2013-03-21 18:40:00,26.7,15.8,29.80,NW,309,0.0,6.0,63,0.00,,FEW031,0.08,23.00,VWS V14.01,2013-03-21 22:40:00,
2013-03-21 18:41:00,26.7,16.2,29.80,NW,309,0.0,6.0,64,0.00,,FEW031,0.08,23.00,VWS V14.01,2013-03-21 22:41:00,
2013-03-21 18:42:00,26.7,16.2,29.80,NW,309,0.0,6.0,64,0.00,,FEW031,0.08,23.00,VWS V14.01,2013-03-21 22:42:00,
2013-03-21 18:43:00,26.7,16.2,29.80,NW,313,0.0,6.0,64,0.00,,FEW031,0.08,23.00,VWS V14.01,2013-03-21 22:43:00,
2013-03-21 18:44:00,26.7,16.2,29.80,NW,313,0.0,6.0,64,0.00,,FEW031,0.08,23.00,VWS V14.01,2013-03-21 22:44:00,
2013-03-21 18:45:00,26.7,16.2,29.80,NW,313,0.0,6.0,64,0.00,,FEW031,0.08,21.00,VWS V14.01,2013-03-21 22:45:00,
2013-03-21 18:46:00,26.7,16.2,29.80,NW,313,0.0,6.0,64,0.00,,FEW031,0.08,21.00,VWS V14.01,2013-03-21 22:46:00,
2013-03-21 18:47:00,26.7,16.2,29.80,NW,313,1.0,6.0,64,0.00,,FEW031,0.08,21.00,VWS V14.01,2013-03-21 22:47:00,
2013-03-21 18:48:00,26.6,16.1,29.80,NW,313,1.0,6.0,64,0.00,,FEW031,0.08,21.00,VWS V14.01,2013-03-21 22:48:00,
2013-03-21 18:49:00,26.6,15.7,29.80,NW,313,1.0,6.0,63,0.00,,FEW031,0.08,21.00,VWS V14.01,2013-03-21 22:49:00,
2013-03-21 18:50:00,26.6,15.7,29.80,North,360,1.0,6.0,63,0.00,,FEW031,0.08,19.00,VWS V14.01,2013-03-21 22:50:00,
2013-03-21 18:51:00,26.6,15.7,29.80,North,360,0.0,6.0,63,0.00,,FEW031,0.08,19.00,VWS V14.01,2013-03-21 22:51:00,
2013-03-21 18:52:00,26.6,15.7,29.80,North,360,0.0,6.0,63,0.00,,FEW031,0.08,19.00,VWS V14.01,2013-03-21 22:52:00,
2013-03-21 18:53:00,26.6,15.7,29.80,North,360,0.0,6.0,63,0.00,,CLR,0.08,19.00,VWS V14.01,2013-03-21 22:53:00,
2013-03-21 18:54:00,26.6,15.7,29.80,North,5,6.0,6.0,63,0.00,,CLR,0.08,18.00,VWS V14.01,2013-03-21 22:54:00,
2013-03-21 18:55:00,26.6,15.7,29.80,NNW,332,0.0,6.0,63,0.00,,CLR,0.08,18.00,VWS V14.01,2013-03-21 22:55:00,
2013-03-21 18:56:00,26.6,15.7,29.80,NNW,340,1.0,6.0,63,0.00,,CLR,0.08,18.00,VWS V14.01,2013-03-21 22:56:00,
2013-03-21 18:57:00,26.6,15.7,29.80,NNW,342,1.0,6.0,63,0.00,,CLR,0.08,18.00,VWS V14.01,2013-03-21 22:57:00,
2013-03-21 18:58:00,26.6,15.4,29.80,NNW,329,0.0,6.0,62,0.00,,CLR,0.08,18.00,VWS V14.01,2013-03-21 22:58:00,
2013-03-21 18:59:00,26.4,15.2,29.80,NNW,335,0.0,6.0,62,0.00,,CLR,0.08,16.00,VWS V14.01,2013-03-21 22:59:00,
2013-03-21 19:00:00,26.4,15.2,29.80,ENE,61,3.0,6.0,62,0.00,,CLR,0.08,16.00,VWS V14.01,2013-03-21 23:00:00,
2013-03-21 19:01:00,26.4,15.2,29.80,North,9,0.0,6.0,62,0.00,,CLR,0.08,16.00,VWS V14.01,2013-03-21 23:01:00,
2013-03-21 19:02:00,26.4,15.5,29.80,NW,308,1.0,6.0,63,0.00,,CLR,0.08,16.00,VWS V14.01,2013-03-21 23:02:00,
2013-03-21 19:03:00,26.4,15.5,29.80,NW,308,0.0,6.0,63,0.00,,CLR,0.08,16.00,VWS V14.01,2013-03-21 23:03:00,
2013-03-21 19:04:00,26.4,15.5,29.80,NW,308,0.0,6.0,63,0.00,,CLR,0.08,16.00,VWS V14.01,2013-03-21 23:04:00,
2013-03-21 19:05:00,26.4,15.5,29.80,NW,308,0.0,6.0,63,0.00,,CLR,0.08,16.00,VWS V14.01,2013-03-21 23:05:00,
2013-03-21 19:06:00,26.4,15.5,29.80,NW,308,0.0,6.0,63,0.00,,CLR,0.08,14.00,VWS V14.01,2013-03-21 23:06:00,
2013-03-21 19:07:00,26.3,15.8,29.80,NW,308,0.0,6.0,64,0.00,,CLR,0.08,14.00,VWS V14.01,2013-03-21 23:07:00,
2013-03-21 19:08:00,26.3,15.8,29.80,NW,308,0.0,6.0,64,0.00,,CLR,0.08,14.00,VWS V14.01,2013-03-21 23:08:00,
2013-03-21 19:09:00,26.3,15.8,29.80,NW,308,1.0,6.0,64,0.00,,CLR,0.08,12.00,VWS V14.01,2013-03-21 23:09:00,
2013-03-21 19:10:00,26.3,15.8,29.80,WNW,299,0.0,6.0,64,0.00,,CLR,0.08,12.00,VWS V14.01,2013-03-21 23:10:00,
2013-03-21 19:11:00,26.3,15.4,29.80,WNW,299,0.0,6.0,63,0.00,,CLR,0.08,12.00,VWS V14.01,2013-03-21 23:11:00,
2013-03-21 19:12:00,26.3,15.4,29.80,WNW,299,0.0,6.0,63,0.00,,CLR,0.08,12.00,VWS V14.01,2013-03-21 23:12:00,
2013-03-21 19:13:00,26.1,15.2,29.80,NW,319,0.0,6.0,63,0.00,,CLR,0.08,12.00,VWS V14.01,2013-03-21 23:13:00,
2013-03-21 19:14:00,26.1,15.2,29.80,NW,319,0.0,6.0,63,0.00,,CLR,0.08,11.00,VWS V14.01,2013-03-21 23:14:00,
2013-03-21 19:15:00,26.1,15.2,29.80,West,275,0.0,6.0,63,0.00,,CLR,0.08,11.00,VWS V14.01,2013-03-21 23:15:00,
2013-03-21 19:16:00,26.1,15.2,29.80,West,275,0.0,6.0,63,0.00,,CLR,0.08,11.00,VWS V14.01,2013-03-21 23:16:00,
2013-03-21 19:17:00,26.1,15.2,29.80,West,275,0.0,6.0,63,0.00,,CLR,0.08,11.00,VWS V14.01,2013-03-21 23:17:00,
2013-03-21 19:18:00,26.1,15.2,29.80,NW,308,0.0,6.0,63,0.00,,CLR,0.08,11.00,VWS V14.01,2013-03-21 23:18:00,
2013-03-21 19:19:00,26.0,15.1,29.80,NW,308,1.0,6.0,63,0.00,,CLR,0.08,9.00,VWS V14.01,2013-03-21 23:19:00,
2013-03-21 19:20:00,26.0,15.1,29.80,NW,308,0.0,6.0,63,0.00,,CLR,0.08,9.00,VWS V14.01,2013-03-21 23:20:00,
2013-03-21 19:21:00,26.0,15.1,29.80,NW,308,0.0,6.0,63,0.00,,CLR,0.08,9.00,VWS V14.01,2013-03-21 23:21:00,
2013-03-21 19:22:00,26.0,15.5,29.80,NW,308,0.0,6.0,64,0.00,,CLR,0.08,9.00,VWS V14.01,2013-03-21 23:22:00,
2013-03-21 19:23:00,26.0,15.5,29.80,NW,308,0.0,6.0,64,0.00,,CLR,0.08,9.00,VWS V14.01,2013-03-21 23:23:00,
2013-03-21 19:24:00,26.0,15.5,29.80,NW,308,0.0,6.0,64,0.00,,CLR,0.08,7.00,VWS V14.01,2013-03-21 23:24:00,
2013-03-21 19:25:00,26.0,15.5,29.80,NW,308,0.0,6.0,64,0.00,,CLR,0.08,7.00,VWS V14.01,2013-03-21 23:25:00,
2013-03-21 19:26:00,25.8,15.3,29.80,NW,308,0.0,6.0,64,0.00,,CLR,0.08,7.00,VWS V14.01,2013-03-21 23:26:00,
2013-03-21 19:27:00,25.8,15.3,29.80,NW,308,0.0,6.0,64,0.00,,CLR,0.08,7.00,VWS V14.01,2013-03-21 23:27:00,
2013-03-21 19:28:00,25.8,15.3,29.80,NW,308,0.0,6.0,64,0.00,,CLR,0.08,7.00,VWS V14.01,2013-03-21 23:28:00,
2013-03-21 19:29:00,25.8,15.3,29.80,NW,308,0.0,6.0,64,0.00,,CLR,0.08,7.00,VWS V14.01,2013-03-21 23:29:00,
2013-03-21 19:30:00,25.8,15.0,29.81,NW,308,0.0,6.0,63,0.00,,CLR,0.08,5.00,VWS V14.01,2013-03-21 23:30:00,
2013-03-21 19:31:00,25.8,15.0,29.81,NW,308,0.0,6.0,63,0.00,,CLR,0.08,5.00,VWS V14.01,2013-03-21 23:31:00,
2013-03-21 19:32:00,25.8,15.3,29.81,NW,308,0.0,6.0,64,0.00,,CLR,0.08,5.00,VWS V14.01,2013-03-21 23:32:00,
2013-03-21 19:33:00,25.7,15.2,29.81,NW,308,0.0,6.0,64,0.00,,CLR,0.08,5.00,VWS V14.01,2013-03-21 23:33:00,
2013-03-21 19:34:00,25.7,15.2,29.81,NW,308,0.0,6.0,64,0.00,,CLR,0.08,5.00,VWS V14.01,2013-03-21 23:34:00,
2013-03-21 19:35:00,25.7,15.2,29.81,NW,308,0.0,6.0,64,0.00,,CLR,0.08,0.00,VWS V14.01,2013-03-21 23:35:00,
2013-03-21 19:36:00,25.7,15.2,29.81,NW,308,0.0,6.0,64,0.00,,CLR,0.08,0.00,VWS V14.01,2013-03-21 23:36:00,
2013-03-21 19:37:00,25.7,15.2,29.81,NW,308,2.0,6.0,64,0.00,,CLR,0.08,0.00,VWS V14.01,2013-03-21 23:37:00,
2013-03-21 19:38:00,25.7,15.2,29.81,NNW,332,1.0,6.0,64,0.00,,CLR,0.08,0.00,VWS V14.01,2013-03-21 23:38:00,
2013-03-21 19:39:00,25.7,15.2,29.81,NNW,338,0.0,6.0,64,0.00,,CLR,0.08,0.00,VWS V14.01,2013-03-21 23:39:00,
2013-03-21 19:40:00,25.7,15.2,29.81,NNW,338,1.0,6.0,64,0.00,,CLR,0.08,0.00,VWS V14.01,2013-03-21 23:40:00,
2013-03-21 19:41:00,25.6,15.1,29.81,NNW,338,0.0,6.0,64,0.00,,CLR,0.08,0.00,VWS V14.01,2013-03-21 23:41:00,
2013-03-21 19:42:00,25.6,15.1,29.81,NNW,338,0.0,6.0,64,0.00,,CLR,0.08,0.00,VWS V14.01,2013-03-21 23:42:00,
2013-03-21 19:43:00,25.6,15.1,29.81,NNW,338,0.0,6.0,64,0.00,,CLR,0.08,0.00,VWS V14.01,2013-03-21 23:43:00,
2013-03-21 19:44:00,25.6,15.5,29.81,NNW,338,0.0,6.0,65,0.00,,CLR,0.08,0.00,VWS V14.01,2013-03-21 23:44:00,
2013-03-21 19:45:00,25.6,15.5,29.81,NNW,338,0.0,6.0,65,0.00,,CLR,0.08,0.00,VWS V14.01,2013-03-21 23:45:00,
2013-03-21 19:46:00,25.6,15.5,29.81,NNW,338,1.0,6.0,65,0.00,,CLR,0.08,0.00,VWS V14.01,2013-03-21 23:46:00,
2013-03-21 19:47:00,25.4,15.6,29.81,NNW,338,0.0,6.0,66,0.00,,CLR,0.08,0.00,VWS V14.01,2013-03-21 23:47:00,
2013-03-21 19:48:00,25.4,15.6,29.81,NNW,338,0.0,6.0,66,0.00,,CLR,0.08,0.00,VWS V14.01,2013-03-21 23:48:00,
2013-03-21 19:49:00,25.4,15.6,29.81,NNW,338,0.0,6.0,66,0.00,,CLR,0.08,0.00,VWS V14.01,2013-03-21 23:49:00,
2013-03-21 19:50:00,25.4,15.6,29.81,NNW,338,1.0,6.0,66,0.00,,CLR,0.08,0.00,VWS V14.01,2013-03-21 23:50:00,
2013-03-21 19:51:00,25.4,15.6,29.81,NNW,338,1.0,6.0,66,0.00,,CLR,0.08,0.00,VWS V14.01,2013-03-21 23:51:00,
2013-03-21 19:52:00,25.3,15.6,29.81,NNW,338,0.0,6.0,66,0.00,,CLR,0.08,0.00,VWS V14.01,2013-03-21 23:52:00,
2013-03-21 19:53:00,25.3,15.6,29.81,NNW,338,0.0,6.0,66,0.00,,CLR,0.08,0.00,VWS V14.01,2013-03-21 23:53:00,
2013-03-21 19:54:00,25.3,15.6,29.81,NNW,338,0.0,6.0,66,0.00,,CLR,0.08,0.00,VWS V14.01,2013-03-21 23:54:00,
2013-03-21 19:55:00,25.3,15.6,29.81,NNW,339,0.0,6.0,66,0.00,,CLR,0.08,0.00,VWS V14.01,2013-03-21 23:55:00,
2013-03-21 19:56:00,25.3,15.6,29.81,NNW,339,0.0,6.0,66,0.00,,CLR,0.08,0.00,VWS V14.01,2013-03-21 23:56:00,
2013-03-21 19:57:00,25.3,15.6,29.81,NNW,339,1.0,6.0,66,0.00,,CLR,0.08,0.00,VWS V14.01,2013-03-21 23:57:00,
2013-03-21 19:58:00,25.1,15.4,29.81,NNW,339,0.0,6.0,66,0.00,,CLR,0.08,0.00,VWS V14.01,2013-03-21 23:58:00,
2013-03-21 19:59:00,25.1,15.4,29.81,NNW,339,0.0,6.0,66,0.00,,CLR,0.08,0.00,VWS V14.01,2013-03-21 23:59:00,
2013-03-21 20:00:00,25.1,15.7,29.81,NNW,339,0.0,6.0,67,0.00,,CLR,0.08,0.00,VWS V14.01,2013-03-22 00:00:00,
2013-03-21 20:01:00,25.1,15.7,29.81,NNW,339,0.0,6.0,67,0.00,,CLR,0.08,0.00,VWS V14.01,2013-03-22 00:01:00,
2013-03-21 20:02:00,25.1,15.7,29.81,NNW,339,0.0,6.0,67,0.00,,CLR,0.08,0.00,VWS V14.01,2013-03-22 00:02:00,
2013-03-21 20:03:00,25.1,15.7,29.81,NNW,339,0.0,6.0,67,0.00,,CLR,0.08,0.00,VWS V14.01,2013-03-22 00:03:00,
2013-03-21 20:04:00,25.0,15.6,29.81,NNW,339,0.0,6.0,67,0.00,,CLR,0.08,0.00,VWS V14.01,2013-03-22 00:04:00,
2013-03-21 20:05:00,25.0,15.6,29.81,NNW,339,0.0,6.0,67,0.00,,CLR,0.08,0.00,VWS V14.01,2013-03-22 00:05:00,
2013-03-21 20:06:00,25.0,15.9,29.81,NNW,339,0.0,6.0,68,0.00,,CLR,0.08,0.00,VWS V14.01,2013-03-22 00:06:00,
2013-03-21 20:07:00,25.0,15.9,29.81,NNW,339,0.0,6.0,68,0.00,,CLR,0.08,0.00,VWS V14.01,2013-03-22 00:07:00,
2013-03-21 20:08:00,25.0,15.9,29.81,NNW,338,0.0,6.0,68,0.00,,CLR,0.08,0.00,VWS V14.01,2013-03-22 00:08:00,
2013-03-21 20:09:00,24.8,15.8,29.81,NNW,338,1.0,6.0,68,0.00,,CLR,0.08,0.00,VWS V14.01,2013-03-22 00:09:00,
2013-03-21 20:10:00,24.8,15.8,29.81,NNW,338,0.0,6.0,68,0.00,,CLR,0.08,0.00,VWS V14.01,2013-03-22 00:10:00,
2013-03-21 20:11:00,24.8,15.8,29.81,NNW,338,0.0,6.0,68,0.00,,CLR,0.08,0.00,VWS V14.01,2013-03-22 00:11:00,
2013-03-21 20:12:00,24.8,15.8,29.81,NNW,338,1.0,6.0,68,0.00,,CLR,0.08,0.00,VWS V14.01,2013-03-22 00:12:00,
2013-03-21 20:13:00,24.8,15.8,29.81,NNW,338,0.0,6.0,68,0.00,,CLR,0.08,0.00,VWS V14.01,2013-03-22 00:13:00,
2013-03-21 20:14:00,24.8,15.8,29.81,NNW,338,0.0,6.0,68,0.00,,CLR,0.08,0.00,VWS V14.01,2013-03-22 00:14:00,
2013-03-21 20:15:00,24.7,15.7,29.81,NNW,338,0.0,6.0,68,0.00,,CLR,0.08,0.00,VWS V14.01,2013-03-22 00:15:00,
2013-03-21 20:16:00,24.7,15.7,29.81,NNW,338,0.0,6.0,68,0.00,,CLR,0.08,0.00,VWS V14.01,2013-03-22 00:16:00,
2013-03-21 20:17:00,24.7,15.7,29.81,NNW,338,0.0,6.0,68,0.00,,CLR,0.08,0.00,VWS V14.01,2013-03-22 00:17:00,
2013-03-21 20:18:00,24.7,15.7,29.81,NNW,338,0.0,6.0,68,0.00,,CLR,0.08,0.00,VWS V14.01,2013-03-22 00:18:00,
2013-03-21 20:19:00,24.7,15.7,29.81,NNW,338,0.0,6.0,68,0.00,,CLR,0.08,0.00,VWS V14.01,2013-03-22 00:19:00,
2013-03-21 20:20:00,24.5,15.5,29.81,NNW,338,0.0,6.0,68,0.00,,CLR,0.08,0.00,VWS V14.01,2013-03-22 00:20:00,
2013-03-21 20:21:00,24.5,15.5,29.81,NNW,338,0.0,6.0,68,0.00,,CLR,0.08,0.00,VWS V14.01,2013-03-22 00:21:00,
2013-03-21 20:22:00,24.5,15.5,29.81,NNW,338,0.0,6.0,68,0.00,,CLR,0.08,0.00,VWS V14.01,2013-03-22 00:22:00,
2013-03-21 20:23:00,24.5,15.5,29.81,NNW,338,0.0,6.0,68,0.00,,CLR,0.08,0.00,VWS V14.01,2013-03-22 00:23:00,
2013-03-21 20:24:00,24.4,15.4,29.81,NNW,338,0.0,6.0,68,0.00,,CLR,0.08,0.00,VWS V14.01,2013-03-22 00:24:00,
2013-03-21 20:25:00,24.4,15.4,29.81,NNW,338,0.0,6.0,68,0.00,,CLR,0.08,0.00,VWS V14.01,2013-03-22 00:25:00,
2013-03-21 20:26:00,24.4,15.4,29.81,NNW,338,0.0,6.0,68,0.00,,CLR,0.08,0.00,VWS V14.01,2013-03-22 00:26:00,
2013-03-21 20:27:00,24.4,15.4,29.81,NNW,338,0.0,6.0,68,0.00,,CLR,0.08,0.00,VWS V14.01,2013-03-22 00:27:00,
2013-03-21 20:28:00,24.2,15.2,29.81,NNW,338,0.0,6.0,68,0.00,,CLR,0.08,0.00,VWS V14.01,2013-03-22 00:28:00,
2013-03-21 20:29:00,24.2,15.5,29.81,NNW,338,0.0,6.0,69,0.00,,CLR,0.08,0.00,VWS V14.01,2013-03-22 00:29:00,
2013-03-21 20:30:00,24.2,15.5,29.81,NNW,338,0.0,6.0,69,0.00,,CLR,0.08,0.00,VWS V14.01,2013-03-22 00:30:00,
2013-03-21 20:31:00,24.2,15.5,29.81,NNW,338,0.0,6.0,69,0.00,,CLR,0.08,0.00,VWS V14.01,2013-03-22 00:31:00,
2013-03-21 20:32:00,24.2,15.5,29.81,NNW,338,0.0,6.0,69,0.00,,CLR,0.08,0.00,VWS V14.01,2013-03-22 00:32:00,
2013-03-21 20:33:00,24.2,15.8,29.81,NNW,338,0.0,6.0,70,0.00,,CLR,0.08,0.00,VWS V14.01,2013-03-22 00:33:00,
2013-03-21 20:34:00,24.1,15.8,29.81,NNW,338,0.0,6.0,70,0.00,,CLR,0.08,0.00,VWS V14.01,2013-03-22 00:34:00,
2013-03-21 20:35:00,24.1,15.8,29.81,NNW,338,0.0,6.0,70,0.00,,CLR,0.08,0.00,VWS V14.01,2013-03-22 00:35:00,
2013-03-21 20:36:00,24.1,15.4,29.81,NNW,338,0.0,6.0,69,0.00,,CLR,0.08,0.00,VWS V14.01,2013-03-22 00:36:00,
2013-03-21 20:37:00,24.1,15.4,29.81,NNW,338,0.0,6.0,69,0.00,,CLR,0.08,0.00,VWS V14.01,2013-03-22 00:37:00,
2013-03-21 20:38:00,24.1,15.4,29.81,NNW,338,0.0,6.0,69,0.00,,CLR,0.08,0.00,VWS V14.01,2013-03-22 00:38:00,
2013-03-21 20:39:00,23.9,15.6,29.81,NNW,338,0.0,6.0,70,0.00,,CLR,0.08,0.00,VWS V14.01,2013-03-22 00:39:00,
2013-03-21 20:40:00,23.9,15.6,29.81,NNW,338,0.0,6.0,70,0.00,,CLR,0.08,0.00,VWS V14.01,2013-03-22 00:40:00,
2013-03-21 20:41:00,23.8,15.5,29.81,NNW,338,0.0,6.0,70,0.00,,CLR,0.08,0.00,VWS V14.01,2013-03-22 00:41:00,
2013-03-21 20:42:00,23.8,15.5,29.81,NNW,338,0.0,6.0,70,0.00,,CLR,0.08,0.00,VWS V14.01,2013-03-22 00:42:00,
2013-03-21 20:43:00,23.8,15.5,29.81,NNW,338,0.0,6.0,70,0.00,,CLR,0.08,0.00,VWS V14.01,2013-03-22 00:43:00,
2013-03-21 20:44:00,23.8,15.8,29.81,NNW,338,0.0,6.0,71,0.00,,CLR,0.08,0.00,VWS V14.01,2013-03-22 00:44:00,
2013-03-21 20:45:00,23.8,15.8,29.81,NNW,338,0.0,6.0,71,0.00,,CLR,0.08,0.00,VWS V14.01,2013-03-22 00:45:00,
2013-03-21 20:46:00,23.6,15.6,29.81,NNW,338,0.0,6.0,71,0.00,,CLR,0.08,0.00,VWS V14.01,2013-03-22 00:46:00,
2013-03-21 20:47:00,23.6,15.6,29.81,NNW,338,0.0,6.0,71,0.00,,CLR,0.08,0.00,VWS V14.01,2013-03-22 00:47:00,
2013-03-21 20:48:00,23.6,15.6,29.81,NNW,338,0.0,6.0,71,0.00,,CLR,0.08,0.00,VWS V14.01,2013-03-22 00:48:00,
2013-03-21 20:49:00,23.6,15.6,29.81,NNW,338,0.0,6.0,71,0.00,,CLR,0.08,0.00,VWS V14.01,2013-03-22 00:49:00,
2013-03-21 20:50:00,23.6,15.6,29.81,NNW,338,0.0,6.0,71,0.00,,CLR,0.08,0.00,VWS V14.01,2013-03-22 00:50:00,
2013-03-21 20:51:00,23.6,15.6,29.81,NNW,338,0.0,6.0,71,0.00,,CLR,0.08,0.00,VWS V14.01,2013-03-22 00:51:00,
2013-03-21 20:52:00,23.6,15.6,29.81,NNW,338,0.0,6.0,71,0.00,,CLR,0.08,0.00,VWS V14.01,2013-03-22 00:52:00,
2013-03-21 20:53:00,23.5,15.5,29.81,NNW,338,0.0,6.0,71,0.00,,CLR,0.08,0.00,VWS V14.01,2013-03-22 00:53:00,
2013-03-21 20:54:00,23.5,15.5,29.81,NNW,338,0.0,6.0,71,0.00,,CLR,0.08,0.00,VWS V14.01,2013-03-22 00:54:00,
2013-03-21 20:55:00,23.5,15.5,29.81,NNW,338,0.0,6.0,71,0.00,,CLR,0.08,0.00,VWS V14.01,2013-03-22 00:55:00,
2013-03-21 20:56:00,23.5,15.5,29.81,NNW,338,0.0,6.0,71,0.00,,CLR,0.08,0.00,VWS V14.01,2013-03-22 00:56:00,
2013-03-21 20:57:00,23.5,15.5,29.81,NNW,338,0.0,6.0,71,0.00,,CLR,0.08,0.00,VWS V14.01,2013-03-22 00:57:00,
2013-03-21 20:58:00,23.5,15.5,29.81,NNW,338,0.0,6.0,71,0.00,,CLR,0.08,0.00,VWS V14.01,2013-03-22 00:58:00,
2013-03-21 20:59:00,23.5,15.5,29.81,NNW,338,0.0,6.0,71,0.00,,CLR,0.08,0.00,VWS V14.01,2013-03-22 00:59:00,
2013-03-21 21:00:00,23.5,15.5,29.81,NNW,338,0.0,6.0,71,0.00,,CLR,0.08,0.00,VWS V14.01,2013-03-22 01:00:00,
2013-03-21 21:01:00,23.5,15.5,29.81,NNW,338,0.0,6.0,71,0.00,,CLR,0.08,0.00,VWS V14.01,2013-03-22 01:01:00,
2013-03-21 21:02:00,23.5,15.5,29.81,NNW,338,0.0,6.0,71,0.00,,CLR,0.08,0.00,VWS V14.01,2013-03-22 01:02:00,
2013-03-21 21:03:00,23.5,15.5,29.81,NNW,338,0.0,6.0,71,0.00,,CLR,0.08,0.00,VWS V14.01,2013-03-22 01:03:00,
2013-03-21 21:04:00,23.5,15.5,29.81,NNW,338,0.0,6.0,71,0.00,,CLR,0.08,0.00,VWS V14.01,2013-03-22 01:04:00,
2013-03-21 21:05:00,23.5,15.5,29.81,NNW,338,0.0,6.0,71,0.00,,CLR,0.08,0.00,VWS V14.01,2013-03-22 01:05:00,
2013-03-21 21:06:00,23.5,15.5,29.81,NNW,338,0.0,6.0,71,0.00,,CLR,0.08,0.00,VWS V14.01,2013-03-22 01:06:00,
2013-03-21 21:07:00,23.5,15.5,29.81,NNW,338,0.0,6.0,71,0.00,,CLR,0.08,0.00,VWS V14.01,2013-03-22 01:07:00,
2013-03-21 21:08:00,23.5,15.5,29.81,NNW,338,0.0,6.0,71,0.00,,CLR,0.08,0.00,VWS V14.01,2013-03-22 01:08:00,
2013-03-21 21:09:00,23.3,15.3,29.81,NNW,338,0.0,6.0,71,0.00,,CLR,0.08,0.00,VWS V14.01,2013-03-22 01:09:00,
2013-03-21 21:10:00,23.3,15.3,29.81,NNW,338,0.0,6.0,71,0.00,,CLR,0.08,0.00,VWS V14.01,2013-03-22 01:10:00,
2013-03-21 21:11:00,23.3,15.3,29.81,NNW,338,0.0,6.0,71,0.00,,CLR,0.08,0.00,VWS V14.01,2013-03-22 01:11:00,
2013-03-21 21:12:00,23.3,15.3,29.81,NNW,338,0.0,6.0,71,0.00,,CLR,0.08,0.00,VWS V14.01,2013-03-22 01:12:00,
2013-03-21 21:13:00,23.3,15.3,29.81,NNW,338,0.0,6.0,71,0.00,,CLR,0.08,0.00,VWS V14.01,2013-03-22 01:13:00,
2013-03-21 21:14:00,23.3,15.3,29.81,NNW,338,0.0,6.0,71,0.00,,CLR,0.08,0.00,VWS V14.01,2013-03-22 01:14:00,
2013-03-21 21:15:00,23.3,15.3,29.81,NNW,338,0.0,6.0,71,0.00,,CLR,0.08,0.00,VWS V14.01,2013-03-22 01:15:00,
2013-03-21 21:16:00,23.3,15.3,29.81,NNW,338,0.0,6.0,71,0.00,,CLR,0.08,0.00,VWS V14.01,2013-03-22 01:16:00,
2013-03-21 21:17:00,23.2,15.2,29.81,NNW,338,0.0,6.0,71,0.00,,CLR,0.08,0.00,VWS V14.01,2013-03-22 01:17:00,
2013-03-21 21:18:00,23.2,15.2,29.81,NNW,338,0.0,6.0,71,0.00,,CLR,0.08,0.00,VWS V14.01,2013-03-22 01:18:00,
2013-03-21 21:19:00,23.2,15.2,29.81,NNW,338,0.0,6.0,71,0.00,,CLR,0.08,0.00,VWS V14.01,2013-03-22 01:19:00,
2013-03-21 21:20:00,23.2,15.2,29.81,NNW,338,0.0,6.0,71,0.00,,CLR,0.08,0.00,VWS V14.01,2013-03-22 01:20:00,
2013-03-21 21:21:00,23.2,15.2,29.81,NNW,338,0.0,6.0,71,0.00,,CLR,0.08,0.00,VWS V14.01,2013-03-22 01:21:00,
2013-03-21 21:22:00,23.2,15.2,29.81,NNW,338,0.0,6.0,71,0.00,,CLR,0.08,0.00,VWS V14.01,2013-03-22 01:22:00,
2013-03-21 21:23:00,23.2,15.2,29.81,NNW,338,0.0,6.0,71,0.00,,CLR,0.08,0.00,VWS V14.01,2013-03-22 01:23:00,
2013-03-21 21:24:00,23.2,15.2,29.81,NNW,338,0.0,6.0,71,0.00,,CLR,0.08,0.00,VWS V14.01,2013-03-22 01:24:00,
2013-03-21 21:25:00,23.0,15.0,29.81,NNW,338,0.0,6.0,71,0.00,,CLR,0.08,0.00,VWS V14.01,2013-03-22 01:25:00,
2013-03-21 21:26:00,23.0,15.0,29.81,NNW,338,0.0,6.0,71,0.00,,CLR,0.08,0.00,VWS V14.01,2013-03-22 01:26:00,
2013-03-21 21:27:00,23.0,15.0,29.81,NNW,338,0.0,6.0,71,0.00,,CLR,0.08,0.00,VWS V14.01,2013-03-22 01:27:00,
2013-03-21 21:28:00,23.0,15.0,29.81,NNW,338,0.0,6.0,71,0.00,,CLR,0.08,0.00,VWS V14.01,2013-03-22 01:28:00,
2013-03-21 21:29:00,23.0,15.0,29.81,NNW,338,0.0,6.0,71,0.00,,CLR,0.08,0.00,VWS V14.01,2013-03-22 01:29:00,
2013-03-21 21:30:00,23.0,15.0,29.81,NNW,338,0.0,6.0,71,0.00,,CLR,0.08,0.00,VWS V14.01,2013-03-22 01:30:00,
2013-03-21 21:31:00,23.0,15.0,29.81,NNW,338,0.0,6.0,71,0.00,,CLR,0.08,0.00,VWS V14.01,2013-03-22 01:31:00,
2013-03-21 21:32:00,22.9,14.9,29.81,NNW,338,0.0,6.0,71,0.00,,CLR,0.08,0.00,VWS V14.01,2013-03-22 01:32:00,
2013-03-21 21:33:00,22.9,14.9,29.81,NNW,338,0.0,6.0,71,0.00,,CLR,0.08,0.00,VWS V14.01,2013-03-22 01:33:00,
2013-03-21 21:34:00,22.9,14.9,29.81,NNW,338,0.0,6.0,71,0.00,,CLR,0.08,0.00,VWS V14.01,2013-03-22 01:34:00,
2013-03-21 21:35:00,22.9,14.9,29.81,NNW,338,0.0,6.0,71,0.00,,CLR,0.08,0.00,VWS V14.01,2013-03-22 01:35:00,
2013-03-21 21:36:00,22.9,14.9,29.81,NNW,338,0.0,6.0,71,0.00,,CLR,0.08,0.00,VWS V14.01,2013-03-22 01:36:00,
2013-03-21 21:37:00,22.9,14.9,29.81,NNW,338,0.0,6.0,71,0.00,,CLR,0.08,0.00,VWS V14.01,2013-03-22 01:37:00,
2013-03-21 21:38:00,22.7,14.7,29.81,NNW,338,0.0,6.0,71,0.00,,CLR,0.08,0.00,VWS V14.01,2013-03-22 01:38:00,
2013-03-21 21:39:00,22.7,14.7,29.81,NNW,338,0.0,6.0,71,0.00,,CLR,0.08,0.00,VWS V14.01,2013-03-22 01:39:00,
2013-03-21 21:40:00,22.7,14.7,29.81,NNW,338,0.0,6.0,71,0.00,,CLR,0.08,0.00,VWS V14.01,2013-03-22 01:40:00,
2013-03-21 21:41:00,22.7,14.7,29.81,NNW,338,0.0,6.0,71,0.00,,CLR,0.08,0.00,VWS V14.01,2013-03-22 01:41:00,
2013-03-21 21:42:00,22.7,14.7,29.81,NNW,338,0.0,6.0,71,0.00,,CLR,0.08,0.00,VWS V14.01,2013-03-22 01:42:00,
2013-03-21 21:43:00,22.5,14.5,29.81,NNW,338,0.0,6.0,71,0.00,,CLR,0.08,0.00,VWS V14.01,2013-03-22 01:43:00,
2013-03-21 21:44:00,22.5,14.5,29.81,NNW,338,0.0,6.0,71,0.00,,CLR,0.08,0.00,VWS V14.01,2013-03-22 01:44:00,
2013-03-21 21:45:00,22.5,14.5,29.81,NNW,338,0.0,6.0,71,0.00,,CLR,0.08,0.00,VWS V14.01,2013-03-22 01:45:00,
2013-03-21 21:46:00,22.5,14.5,29.81,NNW,338,0.0,6.0,71,0.00,,CLR,0.08,0.00,VWS V14.01,2013-03-22 01:46:00,
2013-03-21 21:47:00,22.5,14.9,29.81,NNW,338,0.0,6.0,72,0.00,,CLR,0.08,0.00,VWS V14.01,2013-03-22 01:47:00,
2013-03-21 21:48:00,22.4,14.8,29.81,NNW,338,0.0,6.0,72,0.00,,CLR,0.08,0.00,VWS V14.01,2013-03-22 01:48:00,
2013-03-21 21:49:00,22.4,14.8,29.81,NNW,338,0.0,6.0,72,0.00,,CLR,0.08,0.00,VWS V14.01,2013-03-22 01:49:00,
2013-03-21 21:50:00,22.4,14.8,29.81,NNW,338,0.0,6.0,72,0.00,,CLR,0.08,0.00,VWS V14.01,2013-03-22 01:50:00,
2013-03-21 21:51:00,22.4,14.8,29.81,NNW,338,0.0,6.0,72,0.00,,CLR,0.08,0.00,VWS V14.01,2013-03-22 01:51:00,
2013-03-21 21:52:00,22.4,14.8,29.81,NNW,338,0.0,6.0,72,0.00,,CLR,0.08,0.00,VWS V14.01,2013-03-22 01:52:00,
2013-03-21 21:53:00,22.4,14.8,29.81,NNW,338,0.0,6.0,72,0.00,,CLR,0.08,0.00,VWS V14.01,2013-03-22 01:53:00,
2013-03-21 21:54:00,22.2,14.6,29.81,NNW,338,0.0,6.0,72,0.00,,CLR,0.08,0.00,VWS V14.01,2013-03-22 01:54:00,
2013-03-21 21:55:00,22.2,14.6,29.81,NNW,338,0.0,6.0,72,0.00,,CLR,0.08,0.00,VWS V14.01,2013-03-22 01:55:00,
2013-03-21 21:56:00,22.2,14.6,29.81,NNW,338,0.0,6.0,72,0.00,,CLR,0.08,0.00,VWS V14.01,2013-03-22 01:56:00,
2013-03-21 21:57:00,22.2,14.6,29.81,NNW,338,0.0,6.0,72,0.00,,CLR,0.08,0.00,VWS V14.01,2013-03-22 01:57:00,
2013-03-21 21:58:00,22.2,14.6,29.81,NNW,338,0.0,6.0,72,0.00,,CLR,0.08,0.00,VWS V14.01,2013-03-22 01:58:00,
2013-03-21 21:59:00,22.2,14.6,29.81,NNW,338,0.0,6.0,72,0.00,,CLR,0.08,0.00,VWS V14.01,2013-03-22 01:59:00,
2013-03-21 22:00:00,22.1,14.5,29.81,NNW,338,0.0,6.0,72,0.00,,CLR,0.08,0.00,VWS V14.01,2013-03-22 02:00:00,
2013-03-21 22:01:00,22.1,14.5,29.81,NNW,338,0.0,6.0,72,0.00,,CLR,0.08,0.00,VWS V14.01,2013-03-22 02:01:00,
2013-03-21 22:02:00,22.1,14.5,29.81,NNW,338,0.0,6.0,72,0.00,,CLR,0.08,0.00,VWS V14.01,2013-03-22 02:02:00,
2013-03-21 22:03:00,22.1,14.5,29.81,NNW,338,0.0,6.0,72,0.00,,CLR,0.08,0.00,VWS V14.01,2013-03-22 02:03:00,
2013-03-21 22:04:00,22.1,14.5,29.81,NNW,338,0.0,6.0,72,0.00,,CLR,0.08,0.00,VWS V14.01,2013-03-22 02:04:00,
2013-03-21 22:05:00,21.9,14.3,29.81,NNW,338,0.0,6.0,72,0.00,,CLR,0.08,0.00,VWS V14.01,2013-03-22 02:05:00,
2013-03-21 22:06:00,21.9,14.3,29.81,NNW,338,0.0,6.0,72,0.00,,CLR,0.08,0.00,VWS V14.01,2013-03-22 02:06:00,
2013-03-21 22:07:00,21.9,14.3,29.81,NNW,338,0.0,6.0,72,0.00,,CLR,0.08,0.00,VWS V14.01,2013-03-22 02:07:00,
2013-03-21 22:08:00,21.9,14.3,29.81,NNW,338,0.0,6.0,72,0.00,,CLR,0.08,0.00,VWS V14.01,2013-03-22 02:08:00,
2013-03-21 22:09:00,21.9,14.3,29.81,NNW,338,0.0,6.0,72,0.00,,CLR,0.08,0.00,VWS V14.01,2013-03-22 02:09:00,
2013-03-21 22:10:00,21.9,14.3,29.81,NNW,338,0.0,6.0,72,0.00,,CLR,0.08,0.00,VWS V14.01,2013-03-22 02:10:00,
2013-03-21 22:11:00,21.8,14.2,29.81,NNW,338,0.0,6.0,72,0.00,,CLR,0.08,0.00,VWS V14.01,2013-03-22 02:11:00,
2013-03-21 22:12:00,21.8,14.2,29.81,NNW,338,0.0,6.0,72,0.00,,CLR,0.08,0.00,VWS V14.01,2013-03-22 02:12:00,
2013-03-21 22:13:00,21.8,14.2,29.81,NNW,338,0.0,6.0,72,0.00,,CLR,0.08,0.00,VWS V14.01,2013-03-22 02:13:00,
2013-03-21 22:14:00,21.8,14.2,29.81,NNW,338,0.0,6.0,72,0.00,,CLR,0.08,0.00,VWS V14.01,2013-03-22 02:14:00,
2013-03-21 22:15:00,21.8,14.2,29.81,NNW,338,0.0,6.0,72,0.00,,CLR,0.08,0.00,VWS V14.01,2013-03-22 02:15:00,
2013-03-21 22:16:00,21.6,14.0,29.81,NNW,338,0.0,6.0,72,0.00,,CLR,0.08,0.00,VWS V14.01,2013-03-22 02:16:00,
2013-03-21 22:17:00,21.6,14.0,29.81,NNW,338,0.0,6.0,72,0.00,,CLR,0.08,0.00,VWS V14.01,2013-03-22 02:17:00,
2013-03-21 22:18:00,21.6,14.0,29.81,NNW,338,0.0,6.0,72,0.00,,CLR,0.08,0.00,VWS V14.01,2013-03-22 02:18:00,
2013-03-21 22:19:00,21.6,14.0,29.81,NNW,338,0.0,6.0,72,0.00,,CLR,0.08,0.00,VWS V14.01,2013-03-22 02:19:00,
2013-03-21 22:20:00,21.6,14.0,29.81,NNW,338,0.0,6.0,72,0.00,,CLR,0.08,0.00,VWS V14.01,2013-03-22 02:20:00,
2013-03-21 22:21:00,21.4,13.8,29.81,NNW,338,0.0,6.0,72,0.00,,CLR,0.08,0.00,VWS V14.01,2013-03-22 02:21:00,
2013-03-21 22:22:00,21.4,13.8,29.81,NNW,338,0.0,6.0,72,0.00,,CLR,0.08,0.00,VWS V14.01,2013-03-22 02:22:00,
2013-03-21 22:23:00,21.4,13.8,29.81,NNW,338,0.0,6.0,72,0.00,,CLR,0.08,0.00,VWS V14.01,2013-03-22 02:23:00,
2013-03-21 22:24:00,21.4,13.8,29.81,NNW,338,0.0,6.0,72,0.00,,CLR,0.08,0.00,VWS V14.01,2013-03-22 02:24:00,
2013-03-21 22:25:00,21.4,13.8,29.81,NNW,338,0.0,6.0,72,0.00,,CLR,0.08,0.00,VWS V14.01,2013-03-22 02:25:00,
2013-03-21 22:26:00,21.4,13.8,29.81,NNW,338,0.0,6.0,72,0.00,,CLR,0.08,0.00,VWS V14.01,2013-03-22 02:26:00,
2013-03-21 22:27:00,21.4,13.8,29.81,NNW,338,0.0,6.0,72,0.00,,CLR,0.08,0.00,VWS V14.01,2013-03-22 02:27:00,
2013-03-21 22:28:00,21.3,13.7,29.81,NNW,338,0.0,6.0,72,0.00,,CLR,0.08,0.00,VWS V14.01,2013-03-22 02:28:00,
2013-03-21 22:29:00,21.3,13.7,29.81,NNW,338,0.0,6.0,72,0.00,,CLR,0.08,0.00,VWS V14.01,2013-03-22 02:29:00,
2013-03-21 22:30:00,21.3,13.7,29.82,NNW,338,0.0,6.0,72,0.00,,CLR,0.08,0.00,VWS V14.01,2013-03-22 02:30:00,
2013-03-21 22:31:00,21.3,13.7,29.82,NNW,338,0.0,6.0,72,0.00,,CLR,0.08,0.00,VWS V14.01,2013-03-22 02:31:00,
2013-03-21 22:32:00,21.1,13.5,29.82,NNW,338,0.0,6.0,72,0.00,,CLR,0.08,0.00,VWS V14.01,2013-03-22 02:32:00,
2013-03-21 22:33:00,21.1,13.5,29.82,NNW,338,0.0,6.0,72,0.00,,CLR,0.08,0.00,VWS V14.01,2013-03-22 02:33:00,
2013-03-21 22:34:00,21.1,13.8,29.82,NNW,338,0.0,6.0,73,0.00,,CLR,0.08,0.00,VWS V14.01,2013-03-22 02:34:00,
2013-03-21 22:35:00,21.1,13.8,29.82,NNW,338,0.0,6.0,73,0.00,,CLR,0.08,0.00,VWS V14.01,2013-03-22 02:35:00,
2013-03-21 22:36:00,21.1,13.8,29.82,NNW,338,0.0,6.0,73,0.00,,CLR,0.08,0.00,VWS V14.01,2013-03-22 02:36:00,
2013-03-21 22:37:00,21.1,13.8,29.82,NNW,338,0.0,6.0,73,0.00,,CLR,0.08,0.00,VWS V14.01,2013-03-22 02:37:00,
2013-03-21 22:38:00,21.0,13.7,29.82,NNW,338,0.0,6.0,73,0.00,,CLR,0.08,0.00,VWS V14.01,2013-03-22 02:38:00,
2013-03-21 22:39:00,21.0,13.7,29.82,NNW,338,0.0,6.0,73,0.00,,CLR,0.08,0.00,VWS V14.01,2013-03-22 02:39:00,
2013-03-21 22:40:00,21.0,13.7,29.82,NNW,338,0.0,6.0,73,0.00,,CLR,0.08,0.00,VWS V14.01,2013-03-22 02:40:00,
2013-03-21 22:41:00,21.0,13.7,29.82,NNW,338,0.0,6.0,73,0.00,,CLR,0.08,0.00,VWS V14.01,2013-03-22 02:41:00,
2013-03-21 22:42:00,21.0,13.7,29.82,NNW,338,0.0,6.0,73,0.00,,CLR,0.08,0.00,VWS V14.01,2013-03-22 02:42:00,
2013-03-21 22:43:00,21.0,13.7,29.82,NNW,338,0.0,6.0,73,0.00,,CLR,0.08,0.00,VWS V14.01,2013-03-22 02:43:00,
2013-03-21 22:44:00,20.8,13.5,29.82,NNW,338,0.0,6.0,73,0.00,,CLR,0.08,0.00,VWS V14.01,2013-03-22 02:44:00,
2013-03-21 22:45:00,20.8,13.5,29.82,NNW,338,0.0,6.0,73,0.00,,CLR,0.08,0.00,VWS V14.01,2013-03-22 02:45:00,
2013-03-21 22:46:00,20.8,13.5,29.82,NNW,338,0.0,6.0,73,0.00,,CLR,0.08,0.00,VWS V14.01,2013-03-22 02:46:00,
2013-03-21 22:47:00,20.8,13.8,29.82,NNW,338,0.0,6.0,74,0.00,,CLR,0.08,0.00,VWS V14.01,2013-03-22 02:47:00,
2013-03-21 22:48:00,20.8,13.8,29.82,NNW,338,0.0,6.0,74,0.00,,CLR,0.08,0.00,VWS V14.01,2013-03-22 02:48:00,
2013-03-21 22:49:00,20.6,13.6,29.82,NNW,338,0.0,6.0,74,0.00,,CLR,0.08,0.00,VWS V14.01,2013-03-22 02:49:00,
2013-03-21 22:50:00,20.6,13.6,29.82,NNW,338,0.0,6.0,74,0.00,,CLR,0.08,0.00,VWS V14.01,2013-03-22 02:50:00,
2013-03-21 22:51:00,20.6,13.6,29.82,NNW,338,0.0,6.0,74,0.00,,CLR,0.08,0.00,VWS V14.01,2013-03-22 02:51:00,
2013-03-21 22:52:00,20.6,13.6,29.82,NNW,338,0.0,6.0,74,0.00,,CLR,0.08,0.00,VWS V14.01,2013-03-22 02:52:00,
2013-03-21 22:53:00,20.6,13.6,29.82,NNW,338,0.0,6.0,74,0.00,,CLR,0.08,0.00,VWS V14.01,2013-03-22 02:53:00,
2013-03-21 22:54:00,20.6,13.6,29.82,NNW,338,0.0,6.0,74,0.00,,CLR,0.08,0.00,VWS V14.01,2013-03-22 02:54:00,
2013-03-21 22:55:00,20.5,13.5,29.82,NNW,338,0.0,6.0,74,0.00,,CLR,0.08,0.00,VWS V14.01,2013-03-22 02:55:00,
2013-03-21 22:56:00,20.5,13.5,29.82,NNW,338,0.0,6.0,74,0.00,,CLR,0.08,0.00,VWS V14.01,2013-03-22 02:56:00,
2013-03-21 22:57:00,20.5,13.5,29.82,NNW,338,0.0,6.0,74,0.00,,CLR,0.08,0.00,VWS V14.01,2013-03-22 02:57:00,
2013-03-21 22:58:00,20.5,13.5,29.82,NNW,338,0.0,6.0,74,0.00,,CLR,0.08,0.00,VWS V14.01,2013-03-22 02:58:00,
2013-03-21 22:59:00,20.5,13.5,29.82,NNW,338,0.0,6.0,74,0.00,,CLR,0.08,0.00,VWS V14.01,2013-03-22 02:59:00,
2013-03-21 23:00:00,20.5,13.5,29.83,NNW,338,0.0,6.0,74,0.00,,CLR,0.08,0.00,VWS V14.01,2013-03-22 03:00:00,
2013-03-21 23:01:00,20.5,13.5,29.83,NNW,338,0.0,6.0,74,0.00,,CLR,0.08,0.00,VWS V14.01,2013-03-22 03:01:00,
2013-03-21 23:02:00,20.5,13.5,29.83,NNW,338,0.0,6.0,74,0.00,,CLR,0.08,0.00,VWS V14.01,2013-03-22 03:02:00,
2013-03-21 23:03:00,20.3,13.4,29.83,NNW,338,0.0,6.0,74,0.00,,CLR,0.08,0.00,VWS V14.01,2013-03-22 03:03:00,
2013-03-21 23:04:00,20.3,13.4,29.83,NNW,338,0.0,6.0,74,0.00,,CLR,0.08,0.00,VWS V14.01,2013-03-22 03:04:00,
2013-03-21 23:05:00,20.3,13.4,29.83,NNW,338,0.0,6.0,74,0.00,,CLR,0.08,0.00,VWS V14.01,2013-03-22 03:05:00,
2013-03-21 23:06:00,20.3,13.4,29.83,NNW,338,0.0,6.0,74,0.00,,CLR,0.08,0.00,VWS V14.01,2013-03-22 03:06:00,
2013-03-21 23:07:00,20.3,13.4,29.83,NNW,338,0.0,6.0,74,0.00,,CLR,0.08,0.00,VWS V14.01,2013-03-22 03:07:00,
2013-03-21 23:08:00,20.3,13.4,29.83,NNW,338,0.0,6.0,74,0.00,,CLR,0.08,0.00,VWS V14.01,2013-03-22 03:08:00,
2013-03-21 23:09:00,20.3,13.4,29.83,NNW,338,0.0,6.0,74,0.00,,CLR,0.08,0.00,VWS V14.01,2013-03-22 03:09:00,
2013-03-21 23:10:00,20.2,13.2,29.83,NNW,338,0.0,6.0,74,0.00,,CLR,0.08,0.00,VWS V14.01,2013-03-22 03:10:00,
2013-03-21 23:11:00,20.2,13.2,29.83,NNW,338,0.0,6.0,74,0.00,,CLR,0.08,0.00,VWS V14.01,2013-03-22 03:11:00,
2013-03-21 23:12:00,20.2,13.2,29.83,NNW,338,0.0,6.0,74,0.00,,CLR,0.08,0.00,VWS V14.01,2013-03-22 03:12:00,
2013-03-21 23:13:00,20.2,13.2,29.83,NNW,338,0.0,6.0,74,0.00,,CLR,0.08,0.00,VWS V14.01,2013-03-22 03:13:00,
2013-03-21 23:14:00,20.2,13.6,29.83,NNW,338,0.0,6.0,75,0.00,,CLR,0.08,0.00,VWS V14.01,2013-03-22 03:14:00,
2013-03-21 23:15:00,20.2,13.6,29.82,NNW,338,0.0,6.0,75,0.00,,CLR,0.08,0.00,VWS V14.01,2013-03-22 03:15:00,
2013-03-21 23:16:00,20.2,13.6,29.82,NNW,338,0.0,6.0,75,0.00,,CLR,0.08,0.00,VWS V14.01,2013-03-22 03:16:00,
2013-03-21 23:17:00,20.2,13.6,29.82,NNW,338,0.0,6.0,75,0.00,,CLR,0.08,0.00,VWS V14.01,2013-03-22 03:17:00,
2013-03-21 23:18:00,20.2,13.6,29.82,NNW,338,0.0,6.0,75,0.00,,CLR,0.08,0.00,VWS V14.01,2013-03-22 03:18:00,
2013-03-21 23:19:00,20.0,13.4,29.82,NNW,338,0.0,6.0,75,0.00,,CLR,0.08,0.00,VWS V14.01,2013-03-22 03:19:00,
2013-03-21 23:20:00,20.0,13.4,29.82,NNW,338,0.0,6.0,75,0.00,,CLR,0.08,0.00,VWS V14.01,2013-03-22 03:20:00,
2013-03-21 23:21:00,20.0,13.4,29.82,NNW,338,0.0,6.0,75,0.00,,CLR,0.08,0.00,VWS V14.01,2013-03-22 03:21:00,
2013-03-21 23:22:00,20.0,13.4,29.82,NNW,338,0.0,6.0,75,0.00,,CLR,0.08,0.00,VWS V14.01,2013-03-22 03:22:00,
2013-03-21 23:23:00,20.0,13.4,29.82,NNW,338,0.0,6.0,75,0.00,,CLR,0.08,0.00,VWS V14.01,2013-03-22 03:23:00,
2013-03-21 23:24:00,20.0,13.4,29.82,NNW,338,0.0,6.0,75,0.00,,CLR,0.08,0.00,VWS V14.01,2013-03-22 03:24:00,
2013-03-21 23:25:00,20.0,13.4,29.82,NNW,338,0.0,6.0,75,0.00,,CLR,0.08,0.00,VWS V14.01,2013-03-22 03:25:00,
2013-03-21 23:26:00,19.9,13.3,29.82,NNW,338,0.0,6.0,75,0.00,,CLR,0.08,0.00,VWS V14.01,2013-03-22 03:26:00,
2013-03-21 23:27:00,19.9,13.3,29.82,NNW,338,0.0,6.0,75,0.00,,CLR,0.08,0.00,VWS V14.01,2013-03-22 03:27:00,
2013-03-21 23:28:00,19.9,13.3,29.82,NNW,338,0.0,6.0,75,0.00,,CLR,0.08,0.00,VWS V14.01,2013-03-22 03:28:00,
2013-03-21 23:29:00,19.9,13.3,29.82,NNW,338,0.0,6.0,75,0.00,,CLR,0.08,0.00,VWS V14.01,2013-03-22 03:29:00,
2013-03-21 23:30:00,19.9,13.3,29.83,NNW,338,0.0,6.0,75,0.00,,CLR,0.08,0.00,VWS V14.01,2013-03-22 03:30:00,
2013-03-21 23:31:00,19.9,13.3,29.83,NNW,338,0.0,6.0,75,0.00,,CLR,0.08,0.00,VWS V14.01,2013-03-22 03:31:00,
2013-03-21 23:32:00,19.9,13.6,29.83,NNW,338,0.0,6.0,76,0.00,,CLR,0.08,0.00,VWS V14.01,2013-03-22 03:32:00,
2013-03-21 23:33:00,19.9,13.6,29.83,NNW,338,0.0,6.0,76,0.00,,CLR,0.08,0.00,VWS V14.01,2013-03-22 03:33:00,
2013-03-21 23:34:00,19.9,13.6,29.83,NNW,338,0.0,6.0,76,0.00,,CLR,0.08,0.00,VWS V14.01,2013-03-22 03:34:00,
2013-03-21 23:35:00,19.9,13.6,29.83,NNW,338,0.0,6.0,76,0.00,,CLR,0.08,0.00,VWS V14.01,2013-03-22 03:35:00,
2013-03-21 23:36:00,19.7,13.4,29.83,NNW,338,0.0,6.0,76,0.00,,CLR,0.08,0.00,VWS V14.01,2013-03-22 03:36:00,
2013-03-21 23:37:00,19.7,13.4,29.83,NNW,338,0.0,6.0,76,0.00,,CLR,0.08,0.00,VWS V14.01,2013-03-22 03:37:00,
2013-03-21 23:38:00,19.7,13.4,29.83,NNW,338,0.0,6.0,76,0.00,,CLR,0.08,0.00,VWS V14.01,2013-03-22 03:38:00,
2013-03-21 23:39:00,19.7,13.4,29.83,NNW,338,0.0,6.0,76,0.00,,CLR,0.08,0.00,VWS V14.01,2013-03-22 03:39:00,
2013-03-21 23:40:00,19.7,13.4,29.83,NNW,338,0.0,6.0,76,0.00,,CLR,0.08,0.00,VWS V14.01,2013-03-22 03:40:00,
2013-03-21 23:41:00,19.7,13.4,29.83,NNW,338,0.0,6.0,76,0.00,,CLR,0.08,0.00,VWS V14.01,2013-03-22 03:41:00,
2013-03-21 23:42:00,19.7,13.7,29.83,NNW,338,0.0,6.0,77,0.00,,CLR,0.08,0.00,VWS V14.01,2013-03-22 03:42:00,
2013-03-21 23:43:00,19.7,13.7,29.83,NNW,338,0.0,6.0,77,0.00,,CLR,0.08,0.00,VWS V14.01,2013-03-22 03:43:00,
2013-03-21 23:44:00,19.7,13.7,29.83,NNW,338,0.0,6.0,77,0.00,,CLR,0.08,0.00,VWS V14.01,2013-03-22 03:44:00,
2013-03-21 23:45:00,19.7,13.7,29.82,NNW,338,0.0,6.0,77,0.00,,CLR,0.08,0.00,VWS V14.01,2013-03-22 03:45:00,
2013-03-21 23:46:00,19.7,13.7,29.82,NNW,338,0.0,6.0,77,0.00,,CLR,0.08,0.00,VWS V14.01,2013-03-22 03:46:00,
2013-03-21 23:47:00,19.7,13.7,29.82,NNW,338,0.0,6.0,77,0.00,,CLR,0.08,0.00,VWS V14.01,2013-03-22 03:47:00,
2013-03-21 23:48:00,19.7,13.7,29.82,NNW,338,0.0,6.0,77,0.00,,CLR,0.08,0.00,VWS V14.01,2013-03-22 03:48:00,
2013-03-21 23:49:00,19.7,13.7,29.82,NNW,338,0.0,6.0,77,0.00,,CLR,0.08,0.00,VWS V14.01,2013-03-22 03:49:00,
2013-03-21 23:50:00,19.7,13.7,29.82,NNW,338,0.0,6.0,77,0.00,,CLR,0.08,0.00,VWS V14.01,2013-03-22 03:50:00,
2013-03-21 23:51:00,19.7,13.7,29.82,NNW,338,0.0,6.0,77,0.00,,CLR,0.08,0.00,VWS V14.01,2013-03-22 03:51:00,
2013-03-21 23:52:00,19.7,13.7,29.82,NNW,338,0.0,6.0,77,0.00,,CLR,0.08,0.00,VWS V14.01,2013-03-22 03:52:00,
2013-03-21 23:53:00,19.7,13.7,29.82,NNW,338,0.0,6.0,77,0.00,,CLR,0.08,0.00,VWS V14.01,2013-03-22 03:53:00,
2013-03-21 23:54:00,19.7,13.7,29.82,NNW,338,0.0,6.0,77,0.00,,CLR,0.08,0.00,VWS V14.01,2013-03-22 03:54:00,
2013-03-21 23:55:00,19.7,13.7,29.82,NNW,338,0.0,6.0,77,0.00,,CLR,0.08,0.00,VWS V14.01,2013-03-22 03:55:00,
2013-03-21 23:56:00,19.7,13.7,29.82,NNW,338,0.0,6.0,77,0.00,,CLR,0.08,0.00,VWS V14.01,2013-03-22 03:56:00,
2013-03-21 23:57:00,19.7,14.0,29.82,NNW,338,0.0,6.0,78,0.00,,CLR,0.08,0.00,VWS V14.01,2013-03-22 03:57:00,
2013-03-21 23:58:00,19.7,14.0,29.82,NNW,338,0.0,6.0,78,0.00,,CLR,0.08,0.00,VWS V14.01,2013-03-22 03:58:00,
2013-03-21 23:59:00,19.7,14.0,29.82,NNW,338,0.0,6.0,78,0.00,,CLR,0.08,0.00,VWS V14.01,2013-03-22 03:59:00,